<?xml version="1.0" encoding="UTF-8" standalone="no" ?>
<gpx xmlns="http://www.topografix.com/GPX/1/1" xmlns:xsi="http://www.w3.org/2001/XMLSchema-instance" xsi:schemaLocation="http://www.topografix.com/GPX/1/1 http://www.topografix.com/GPX/1/1/gpx.xsd" version="1.1" creator="VisuGPX - https://www.visugpx.com">
  <metadata>
    <name>Razorbike 2012</name>
    <desc><![CDATA[Liaisons et spéciales de la Razorbike 2012]]></desc>
  </metadata>
  <trk>
    <name><![CDATA[Razorbike]]></name>
    <trkseg>
      <trkpt lat="43.49805" lon="6.93628">
        <ele>58</ele>
        <time>2012-01-15T09:30:02Z</time>
      </trkpt>
      <trkpt lat="43.49792" lon="6.93624">
        <ele>58</ele>
        <time>2012-01-15T09:30:11Z</time>
      </trkpt>
      <trkpt lat="43.49781" lon="6.93624">
        <ele>58</ele>
        <time>2012-01-15T09:30:18Z</time>
      </trkpt>
      <trkpt lat="43.49773" lon="6.93613">
        <ele>58.024154663086</ele>
        <time>2012-01-15T09:30:24Z</time>
      </trkpt>
      <trkpt lat="43.49761" lon="6.93596">
        <ele>59.109924316406</ele>
        <time>2012-01-15T09:30:33Z</time>
      </trkpt>
      <trkpt lat="43.49751" lon="6.93578">
        <ele>60</ele>
        <time>2012-01-15T09:30:40Z</time>
      </trkpt>
      <trkpt lat="43.49735" lon="6.93563">
        <ele>60</ele>
        <time>2012-01-15T09:30:47Z</time>
      </trkpt>
      <trkpt lat="43.49723" lon="6.93562">
        <ele>60</ele>
        <time>2012-01-15T09:30:52Z</time>
      </trkpt>
      <trkpt lat="43.49705" lon="6.93562">
        <ele>60</ele>
        <time>2012-01-15T09:30:59Z</time>
      </trkpt>
      <trkpt lat="43.49686" lon="6.93575">
        <ele>60</ele>
        <time>2012-01-15T09:31:06Z</time>
      </trkpt>
      <trkpt lat="43.49668" lon="6.93607">
        <ele>59.129474639893</ele>
        <time>2012-01-15T09:31:15Z</time>
      </trkpt>
      <trkpt lat="43.49651" lon="6.93636">
        <ele>59.951656341553</ele>
        <time>2012-01-15T09:31:23Z</time>
      </trkpt>
      <trkpt lat="43.49633" lon="6.93656">
        <ele>64.892631530762</ele>
        <time>2012-01-15T09:31:30Z</time>
      </trkpt>
      <trkpt lat="43.49615" lon="6.93669">
        <ele>71.291923522949</ele>
        <time>2012-01-15T09:31:37Z</time>
      </trkpt>
      <trkpt lat="43.49609" lon="6.93664">
        <ele>72.369911193848</ele>
        <time>2012-01-15T09:31:40Z</time>
      </trkpt>
      <trkpt lat="43.49608" lon="6.93661">
        <ele>72.267166137695</ele>
        <time>2012-01-15T09:31:41Z</time>
      </trkpt>
      <trkpt lat="43.49613" lon="6.9365">
        <ele>70.126808166504</ele>
        <time>2012-01-15T09:31:45Z</time>
      </trkpt>
      <trkpt lat="43.49618" lon="6.9364">
        <ele>67.623580932617</ele>
        <time>2012-01-15T09:31:48Z</time>
      </trkpt>
      <trkpt lat="43.49623" lon="6.93627">
        <ele>65.309875488281</ele>
        <time>2012-01-15T09:31:52Z</time>
      </trkpt>
      <trkpt lat="43.49629" lon="6.93607">
        <ele>63.144355773926</ele>
        <time>2012-01-15T09:31:59Z</time>
      </trkpt>
      <trkpt lat="43.49635" lon="6.93582">
        <ele>60.987602233887</ele>
        <time>2012-01-15T09:32:08Z</time>
      </trkpt>
      <trkpt lat="43.49643" lon="6.93554">
        <ele>60</ele>
        <time>2012-01-15T09:32:19Z</time>
      </trkpt>
      <trkpt lat="43.49651" lon="6.93536">
        <ele>60</ele>
        <time>2012-01-15T09:32:26Z</time>
      </trkpt>
      <trkpt lat="43.4966" lon="6.93517">
        <ele>60.20121383667</ele>
        <time>2012-01-15T09:32:34Z</time>
      </trkpt>
      <trkpt lat="43.49667" lon="6.93502">
        <ele>60.004722595215</ele>
        <time>2012-01-15T09:32:40Z</time>
      </trkpt>
      <trkpt lat="43.49671" lon="6.93484">
        <ele>60</ele>
        <time>2012-01-15T09:32:49Z</time>
      </trkpt>
      <trkpt lat="43.49669" lon="6.93466">
        <ele>60</ele>
        <time>2012-01-15T09:32:57Z</time>
      </trkpt>
      <trkpt lat="43.49664" lon="6.9345">
        <ele>60.224853515625</ele>
        <time>2012-01-15T09:33:04Z</time>
      </trkpt>
      <trkpt lat="43.49658" lon="6.93437">
        <ele>60.690986633301</ele>
        <time>2012-01-15T09:33:11Z</time>
      </trkpt>
      <trkpt lat="43.49653" lon="6.93424">
        <ele>61.317337036133</ele>
        <time>2012-01-15T09:33:17Z</time>
      </trkpt>
      <trkpt lat="43.49644" lon="6.93412">
        <ele>62.397216796875</ele>
        <time>2012-01-15T09:33:24Z</time>
      </trkpt>
      <trkpt lat="43.49634" lon="6.93397">
        <ele>64.785499572754</ele>
        <time>2012-01-15T09:33:32Z</time>
      </trkpt>
      <trkpt lat="43.49619" lon="6.93382">
        <ele>70.012237548828</ele>
        <time>2012-01-15T09:33:41Z</time>
      </trkpt>
      <trkpt lat="43.49604" lon="6.93375">
        <ele>77.256645202637</ele>
        <time>2012-01-15T09:33:50Z</time>
      </trkpt>
      <trkpt lat="43.49587" lon="6.93368">
        <ele>85.966743469238</ele>
        <time>2012-01-15T09:33:59Z</time>
      </trkpt>
      <trkpt lat="43.4957" lon="6.93355">
        <ele>92.641693115234</ele>
        <time>2012-01-15T09:34:08Z</time>
      </trkpt>
      <trkpt lat="43.49572" lon="6.93341">
        <ele>92.820877075195</ele>
        <time>2012-01-15T09:34:13Z</time>
      </trkpt>
      <trkpt lat="43.49586" lon="6.93328">
        <ele>88.708648681641</ele>
        <time>2012-01-15T09:34:21Z</time>
      </trkpt>
      <trkpt lat="43.49604" lon="6.93318">
        <ele>79.754791259766</ele>
        <time>2012-01-15T09:34:29Z</time>
      </trkpt>
      <trkpt lat="43.49617" lon="6.93307">
        <ele>73.32926940918</ele>
        <time>2012-01-15T09:34:35Z</time>
      </trkpt>
      <trkpt lat="43.49621" lon="6.93295">
        <ele>71.350204467773</ele>
        <time>2012-01-15T09:34:39Z</time>
      </trkpt>
      <trkpt lat="43.49622" lon="6.93288">
        <ele>71.213752746582</ele>
        <time>2012-01-15T09:34:41Z</time>
      </trkpt>
      <trkpt lat="43.49624" lon="6.93263">
        <ele>71.64436340332</ele>
        <time>2012-01-15T09:34:49Z</time>
      </trkpt>
      <trkpt lat="43.49618" lon="6.93245">
        <ele>75.761909484863</ele>
        <time>2012-01-15T09:34:55Z</time>
      </trkpt>
      <trkpt lat="43.49608" lon="6.93235">
        <ele>81.248863220215</ele>
        <time>2012-01-15T09:35:00Z</time>
      </trkpt>
      <trkpt lat="43.49587" lon="6.93214">
        <ele>94.892738342285</ele>
        <time>2012-01-15T09:35:09Z</time>
      </trkpt>
      <trkpt lat="43.49578" lon="6.93196">
        <ele>99.433502197266</ele>
        <time>2012-01-15T09:35:14Z</time>
      </trkpt>
      <trkpt lat="43.49585" lon="6.93182">
        <ele>97.713706970215</ele>
        <time>2012-01-15T09:35:18Z</time>
      </trkpt>
      <trkpt lat="43.49589" lon="6.93176">
        <ele>95.881622314453</ele>
        <time>2012-01-15T09:35:20Z</time>
      </trkpt>
      <trkpt lat="43.49601" lon="6.93165">
        <ele>89.889854431152</ele>
        <time>2012-01-15T09:35:25Z</time>
      </trkpt>
      <trkpt lat="43.49617" lon="6.93147">
        <ele>83.551216125488</ele>
        <time>2012-01-15T09:35:33Z</time>
      </trkpt>
      <trkpt lat="43.49628" lon="6.93127">
        <ele>82.014495849609</ele>
        <time>2012-01-15T09:35:41Z</time>
      </trkpt>
      <trkpt lat="43.49634" lon="6.93103">
        <ele>82.182556152344</ele>
        <time>2012-01-15T09:35:49Z</time>
      </trkpt>
      <trkpt lat="43.49638" lon="6.93073">
        <ele>82.960418701172</ele>
        <time>2012-01-15T09:35:59Z</time>
      </trkpt>
      <trkpt lat="43.49635" lon="6.9305">
        <ele>85.782508850098</ele>
        <time>2012-01-15T09:36:07Z</time>
      </trkpt>
      <trkpt lat="43.49624" lon="6.9304">
        <ele>90.221778869629</ele>
        <time>2012-01-15T09:36:13Z</time>
      </trkpt>
      <trkpt lat="43.49607" lon="6.93031">
        <ele>96.511184692383</ele>
        <time>2012-01-15T09:36:21Z</time>
      </trkpt>
      <trkpt lat="43.49594" lon="6.93021">
        <ele>100.93439483643</ele>
        <time>2012-01-15T09:36:28Z</time>
      </trkpt>
      <trkpt lat="43.49591" lon="6.93004">
        <ele>101.95009613037</ele>
        <time>2012-01-15T09:36:34Z</time>
      </trkpt>
      <trkpt lat="43.49596" lon="6.9299">
        <ele>100.455078125</ele>
        <time>2012-01-15T09:36:39Z</time>
      </trkpt>
      <trkpt lat="43.49595" lon="6.92978">
        <ele>100.56494140625</ele>
        <time>2012-01-15T09:36:44Z</time>
      </trkpt>
      <trkpt lat="43.49588" lon="6.92963">
        <ele>101.54569244385</ele>
        <time>2012-01-15T09:36:51Z</time>
      </trkpt>
      <trkpt lat="43.49581" lon="6.92949">
        <ele>101.99631500244</ele>
        <time>2012-01-15T09:36:56Z</time>
      </trkpt>
      <trkpt lat="43.49573" lon="6.9293">
        <ele>105.49176025391</ele>
        <time>2012-01-15T09:37:03Z</time>
      </trkpt>
      <trkpt lat="43.49573" lon="6.92927">
        <ele>105.33294677734</ele>
        <time>2012-01-15T09:37:04Z</time>
      </trkpt>
      <trkpt lat="43.49572" lon="6.9292">
        <ele>105.71936798096</ele>
        <time>2012-01-15T09:37:07Z</time>
      </trkpt>
      <trkpt lat="43.49563" lon="6.92903">
        <ele>108.71659088135</ele>
        <time>2012-01-15T09:37:16Z</time>
      </trkpt>
      <trkpt lat="43.49551" lon="6.9289">
        <ele>112.72771453857</ele>
        <time>2012-01-15T09:37:24Z</time>
      </trkpt>
      <trkpt lat="43.49542" lon="6.92876">
        <ele>115.26949310303</ele>
        <time>2012-01-15T09:37:32Z</time>
      </trkpt>
      <trkpt lat="43.49531" lon="6.9286">
        <ele>119.24938964844</ele>
        <time>2012-01-15T09:37:41Z</time>
      </trkpt>
      <trkpt lat="43.49518" lon="6.92847">
        <ele>125.32778167725</ele>
        <time>2012-01-15T09:37:49Z</time>
      </trkpt>
      <trkpt lat="43.49506" lon="6.92829">
        <ele>131.9677734375</ele>
        <time>2012-01-15T09:37:58Z</time>
      </trkpt>
      <trkpt lat="43.49503" lon="6.92809">
        <ele>133.61572265625</ele>
        <time>2012-01-15T09:38:05Z</time>
      </trkpt>
      <trkpt lat="43.49495" lon="6.92786">
        <ele>136.30293273926</ele>
        <time>2012-01-15T09:38:14Z</time>
      </trkpt>
      <trkpt lat="43.4949" lon="6.9278">
        <ele>137.03775024414</ele>
        <time>2012-01-15T09:38:19Z</time>
      </trkpt>
      <trkpt lat="43.4949" lon="6.92781">
        <ele>137.0616607666</ele>
        <time>2012-01-15T09:38:25Z</time>
      </trkpt>
      <trkpt lat="43.49487" lon="6.92782">
        <ele>137.33326721191</ele>
        <time>2012-01-15T09:38:32Z</time>
      </trkpt>
      <trkpt lat="43.49486" lon="6.92784">
        <ele>137.38876342773</ele>
        <time>2012-01-15T09:38:33Z</time>
      </trkpt>
      <trkpt lat="43.49481" lon="6.92802">
        <ele>137.8037109375</ele>
        <time>2012-01-15T09:38:40Z</time>
      </trkpt>
      <trkpt lat="43.49474" lon="6.92813">
        <ele>138.69580078125</ele>
        <time>2012-01-15T09:38:46Z</time>
      </trkpt>
      <trkpt lat="43.49466" lon="6.92827">
        <ele>134.44366455078</ele>
        <time>2012-01-15T09:38:54Z</time>
      </trkpt>
      <trkpt lat="43.49453" lon="6.92845">
        <ele>126.74118804932</ele>
        <time>2012-01-15T09:39:04Z</time>
      </trkpt>
      <trkpt lat="43.49441" lon="6.92844">
        <ele>120.0005569458</ele>
        <time>2012-01-15T09:39:10Z</time>
      </trkpt>
      <trkpt lat="43.49428" lon="6.92842">
        <ele>113.36687469482</ele>
        <time>2012-01-15T09:39:17Z</time>
      </trkpt>
      <trkpt lat="43.49413" lon="6.9285">
        <ele>109.71412658691</ele>
        <time>2012-01-15T09:39:26Z</time>
      </trkpt>
      <trkpt lat="43.49404" lon="6.92866">
        <ele>112.20874023438</ele>
        <time>2012-01-15T09:39:34Z</time>
      </trkpt>
      <trkpt lat="43.494" lon="6.92888">
        <ele>117.63323974609</ele>
        <time>2012-01-15T09:39:43Z</time>
      </trkpt>
      <trkpt lat="43.49403" lon="6.92902">
        <ele>120.6549911499</ele>
        <time>2012-01-15T09:39:49Z</time>
      </trkpt>
      <trkpt lat="43.49409" lon="6.92921">
        <ele>125.15185546875</ele>
        <time>2012-01-15T09:39:57Z</time>
      </trkpt>
      <trkpt lat="43.49413" lon="6.9294">
        <ele>130.32229614258</ele>
        <time>2012-01-15T09:40:05Z</time>
      </trkpt>
      <trkpt lat="43.4941" lon="6.92955">
        <ele>132.92944335938</ele>
        <time>2012-01-15T09:40:11Z</time>
      </trkpt>
      <trkpt lat="43.49403" lon="6.92977">
        <ele>136.11053466797</ele>
        <time>2012-01-15T09:40:20Z</time>
      </trkpt>
      <trkpt lat="43.49404" lon="6.92991">
        <ele>138.08099365234</ele>
        <time>2012-01-15T09:40:26Z</time>
      </trkpt>
      <trkpt lat="43.49408" lon="6.93008">
        <ele>140.83964538574</ele>
        <time>2012-01-15T09:40:33Z</time>
      </trkpt>
      <trkpt lat="43.49408" lon="6.93024">
        <ele>142.85688781738</ele>
        <time>2012-01-15T09:40:39Z</time>
      </trkpt>
      <trkpt lat="43.49403" lon="6.93045">
        <ele>144.86700439453</ele>
        <time>2012-01-15T09:40:47Z</time>
      </trkpt>
      <trkpt lat="43.49396" lon="6.93066">
        <ele>146.52697753906</ele>
        <time>2012-01-15T09:40:56Z</time>
      </trkpt>
      <trkpt lat="43.49387" lon="6.93086">
        <ele>147.76423645019</ele>
        <time>2012-01-15T09:41:05Z</time>
      </trkpt>
      <trkpt lat="43.49377" lon="6.93102">
        <ele>147.77383422852</ele>
        <time>2012-01-15T09:41:13Z</time>
      </trkpt>
      <trkpt lat="43.49369" lon="6.93116">
        <ele>148.19424438477</ele>
        <time>2012-01-15T09:41:20Z</time>
      </trkpt>
      <trkpt lat="43.4936" lon="6.93137">
        <ele>149.58126831055</ele>
        <time>2012-01-15T09:41:29Z</time>
      </trkpt>
      <trkpt lat="43.49356" lon="6.9316">
        <ele>151.27772521973</ele>
        <time>2012-01-15T09:41:38Z</time>
      </trkpt>
      <trkpt lat="43.49359" lon="6.93178">
        <ele>154.05807495117</ele>
        <time>2012-01-15T09:41:46Z</time>
      </trkpt>
      <trkpt lat="43.49363" lon="6.93192">
        <ele>157.03649902344</ele>
        <time>2012-01-15T09:41:53Z</time>
      </trkpt>
      <trkpt lat="43.49372" lon="6.93201">
        <ele>159.26321411133</ele>
        <time>2012-01-15T09:42:00Z</time>
      </trkpt>
      <trkpt lat="43.49375" lon="6.932">
        <ele>159.63400268555</ele>
        <time>2012-01-15T09:42:03Z</time>
      </trkpt>
      <trkpt lat="43.49375" lon="6.93195">
        <ele>159.03146362305</ele>
        <time>2012-01-15T09:42:06Z</time>
      </trkpt>
      <trkpt lat="43.49374" lon="6.93192">
        <ele>158.57458496094</ele>
        <time>2012-01-15T09:42:07Z</time>
      </trkpt>
      <trkpt lat="43.4937" lon="6.9318">
        <ele>156.21939086914</ele>
        <time>2012-01-15T09:42:12Z</time>
      </trkpt>
      <trkpt lat="43.49372" lon="6.9316">
        <ele>154.01657104492</ele>
        <time>2012-01-15T09:42:20Z</time>
      </trkpt>
      <trkpt lat="43.49382" lon="6.93144">
        <ele>154.24591064453</ele>
        <time>2012-01-15T09:42:28Z</time>
      </trkpt>
      <trkpt lat="43.49393" lon="6.93134">
        <ele>154.35632324219</ele>
        <time>2012-01-15T09:42:35Z</time>
      </trkpt>
      <trkpt lat="43.49406" lon="6.93126">
        <ele>153.44416809082</ele>
        <time>2012-01-15T09:42:43Z</time>
      </trkpt>
      <trkpt lat="43.49417" lon="6.93119">
        <ele>152.8504486084</ele>
        <time>2012-01-15T09:42:49Z</time>
      </trkpt>
      <trkpt lat="43.49433" lon="6.93112">
        <ele>150.33096313477</ele>
        <time>2012-01-15T09:42:58Z</time>
      </trkpt>
      <trkpt lat="43.49442" lon="6.93116">
        <ele>149.60569763184</ele>
        <time>2012-01-15T09:43:05Z</time>
      </trkpt>
      <trkpt lat="43.49442" lon="6.93117">
        <ele>149.72775268555</ele>
        <time>2012-01-15T09:43:06Z</time>
      </trkpt>
      <trkpt lat="43.49442" lon="6.93123">
        <ele>150.18025207519</ele>
        <time>2012-01-15T09:43:10Z</time>
      </trkpt>
      <trkpt lat="43.49442" lon="6.93123">
        <ele>150.21638488769</ele>
        <time>2012-01-15T09:43:18Z</time>
      </trkpt>
      <trkpt lat="43.49442" lon="6.93134">
        <ele>150.92108154297</ele>
        <time>2012-01-15T09:43:37Z</time>
      </trkpt>
      <trkpt lat="43.49442" lon="6.93162">
        <ele>152.32078552246</ele>
        <time>2012-01-15T09:43:43Z</time>
      </trkpt>
      <trkpt lat="43.49432" lon="6.93186">
        <ele>155.87541198731</ele>
        <time>2012-01-15T09:43:48Z</time>
      </trkpt>
      <trkpt lat="43.49415" lon="6.93215">
        <ele>161.58030700684</ele>
        <time>2012-01-15T09:43:54Z</time>
      </trkpt>
      <trkpt lat="43.49403" lon="6.93242">
        <ele>165.13696289062</ele>
        <time>2012-01-15T09:44:00Z</time>
      </trkpt>
      <trkpt lat="43.494" lon="6.9326">
        <ele>167.54531860352</ele>
        <time>2012-01-15T09:44:06Z</time>
      </trkpt>
      <trkpt lat="43.49399" lon="6.9328">
        <ele>169.9891204834</ele>
        <time>2012-01-15T09:44:13Z</time>
      </trkpt>
      <trkpt lat="43.494" lon="6.933">
        <ele>171.76895141602</ele>
        <time>2012-01-15T09:44:20Z</time>
      </trkpt>
      <trkpt lat="43.494" lon="6.93319">
        <ele>171.13272094727</ele>
        <time>2012-01-15T09:44:27Z</time>
      </trkpt>
      <trkpt lat="43.494" lon="6.93325">
        <ele>170.82029724121</ele>
        <time>2012-01-15T09:44:29Z</time>
      </trkpt>
      <trkpt lat="43.49396" lon="6.93327">
        <ele>171.62710571289</ele>
        <time>2012-01-15T09:44:31Z</time>
      </trkpt>
      <trkpt lat="43.49389" lon="6.9332">
        <ele>173.83467102051</ele>
        <time>2012-01-15T09:44:35Z</time>
      </trkpt>
      <trkpt lat="43.49388" lon="6.93319">
        <ele>174.31242370606</ele>
        <time>2012-01-15T09:44:36Z</time>
      </trkpt>
      <trkpt lat="43.49375" lon="6.93307">
        <ele>177.47421264648</ele>
        <time>2012-01-15T09:44:44Z</time>
      </trkpt>
      <trkpt lat="43.49361" lon="6.93307">
        <ele>179.94351196289</ele>
        <time>2012-01-15T09:44:51Z</time>
      </trkpt>
      <trkpt lat="43.49347" lon="6.93312">
        <ele>174.34704589844</ele>
        <time>2012-01-15T09:44:59Z</time>
      </trkpt>
      <trkpt lat="43.49338" lon="6.9333">
        <ele>175.09593200684</ele>
        <time>2012-01-15T09:45:08Z</time>
      </trkpt>
      <trkpt lat="43.49338" lon="6.93333">
        <ele>175.67294311523</ele>
        <time>2012-01-15T09:45:10Z</time>
      </trkpt>
      <trkpt lat="43.49337" lon="6.93336">
        <ele>176.11183166504</ele>
        <time>2012-01-15T09:45:12Z</time>
      </trkpt>
      <trkpt lat="43.49337" lon="6.93339">
        <ele>176.54670715332</ele>
        <time>2012-01-15T09:45:16Z</time>
      </trkpt>
      <trkpt lat="43.49336" lon="6.93344">
        <ele>177.22290039062</ele>
        <time>2012-01-15T09:45:31Z</time>
      </trkpt>
      <trkpt lat="43.49338" lon="6.93347">
        <ele>177.94671630859</ele>
        <time>2012-01-15T09:45:33Z</time>
      </trkpt>
      <trkpt lat="43.49342" lon="6.93355">
        <ele>179.26705932617</ele>
        <time>2012-01-15T09:45:37Z</time>
      </trkpt>
      <trkpt lat="43.49345" lon="6.93359">
        <ele>179.77391052246</ele>
        <time>2012-01-15T09:45:39Z</time>
      </trkpt>
      <trkpt lat="43.4935" lon="6.9337">
        <ele>180</ele>
        <time>2012-01-15T09:45:45Z</time>
      </trkpt>
      <trkpt lat="43.4935" lon="6.93384">
        <ele>180</ele>
        <time>2012-01-15T09:45:52Z</time>
      </trkpt>
      <trkpt lat="43.49349" lon="6.93387">
        <ele>180</ele>
        <time>2012-01-15T09:45:54Z</time>
      </trkpt>
      <trkpt lat="43.49347" lon="6.93395">
        <ele>180</ele>
        <time>2012-01-15T09:45:58Z</time>
      </trkpt>
      <trkpt lat="43.49347" lon="6.93406">
        <ele>180</ele>
        <time>2012-01-15T09:46:05Z</time>
      </trkpt>
      <trkpt lat="43.49347" lon="6.93407">
        <ele>180</ele>
        <time>2012-01-15T09:46:06Z</time>
      </trkpt>
      <trkpt lat="43.49345" lon="6.93413">
        <ele>180</ele>
        <time>2012-01-15T09:46:09Z</time>
      </trkpt>
      <trkpt lat="43.49345" lon="6.93425">
        <ele>179.38027954102</ele>
        <time>2012-01-15T09:46:14Z</time>
      </trkpt>
      <trkpt lat="43.49344" lon="6.93427">
        <ele>179.28414916992</ele>
        <time>2012-01-15T09:46:15Z</time>
      </trkpt>
      <trkpt lat="43.49342" lon="6.93438">
        <ele>178.44987487793</ele>
        <time>2012-01-15T09:46:20Z</time>
      </trkpt>
      <trkpt lat="43.49339" lon="6.93456">
        <ele>176.77452087402</ele>
        <time>2012-01-15T09:46:27Z</time>
      </trkpt>
      <trkpt lat="43.49335" lon="6.93471">
        <ele>175.09051513672</ele>
        <time>2012-01-15T09:46:33Z</time>
      </trkpt>
      <trkpt lat="43.49334" lon="6.93498">
        <ele>172.15217590332</ele>
        <time>2012-01-15T09:46:37Z</time>
      </trkpt>
      <trkpt lat="43.49343" lon="6.93538">
        <ele>166.55113220215</ele>
        <time>2012-01-15T09:46:41Z</time>
      </trkpt>
      <trkpt lat="43.49348" lon="6.9356">
        <ele>163.91557312012</ele>
        <time>2012-01-15T09:46:43Z</time>
      </trkpt>
      <trkpt lat="43.49349" lon="6.9358">
        <ele>161.26737976074</ele>
        <time>2012-01-15T09:46:45Z</time>
      </trkpt>
      <trkpt lat="43.4934" lon="6.93607">
        <ele>159.99116516113</ele>
        <time>2012-01-15T09:46:48Z</time>
      </trkpt>
      <trkpt lat="43.49327" lon="6.93654">
        <ele>158.90739440918</ele>
        <time>2012-01-15T09:46:54Z</time>
      </trkpt>
      <trkpt lat="43.49324" lon="6.93669">
        <ele>158.32740783691</ele>
        <time>2012-01-15T09:46:57Z</time>
      </trkpt>
      <trkpt lat="43.49323" lon="6.93674">
        <ele>158.34214782715</ele>
        <time>2012-01-15T09:46:58Z</time>
      </trkpt>
      <trkpt lat="43.49323" lon="6.93679">
        <ele>158.3903503418</ele>
        <time>2012-01-15T09:46:59Z</time>
      </trkpt>
      <trkpt lat="43.49321" lon="6.93692">
        <ele>158.49612426758</ele>
        <time>2012-01-15T09:47:02Z</time>
      </trkpt>
      <trkpt lat="43.49319" lon="6.93695">
        <ele>158.4694519043</ele>
        <time>2012-01-15T09:47:03Z</time>
      </trkpt>
      <trkpt lat="43.49314" lon="6.93714">
        <ele>157.59741210938</ele>
        <time>2012-01-15T09:47:08Z</time>
      </trkpt>
      <trkpt lat="43.4931" lon="6.93735">
        <ele>157.54135131836</ele>
        <time>2012-01-15T09:47:14Z</time>
      </trkpt>
      <trkpt lat="43.49309" lon="6.93753">
        <ele>157.87811279297</ele>
        <time>2012-01-15T09:47:20Z</time>
      </trkpt>
      <trkpt lat="43.4931" lon="6.9378">
        <ele>157</ele>
        <time>2012-01-15T09:47:28Z</time>
      </trkpt>
      <trkpt lat="43.49306" lon="6.93811">
        <ele>157.7492980957</ele>
        <time>2012-01-15T09:47:36Z</time>
      </trkpt>
      <trkpt lat="43.49303" lon="6.9385">
        <ele>162.33657836914</ele>
        <time>2012-01-15T09:47:45Z</time>
      </trkpt>
      <trkpt lat="43.49305" lon="6.93873">
        <ele>164.34475708008</ele>
        <time>2012-01-15T09:47:51Z</time>
      </trkpt>
      <trkpt lat="43.49311" lon="6.93906">
        <ele>166.99159240723</ele>
        <time>2012-01-15T09:47:58Z</time>
      </trkpt>
      <trkpt lat="43.49318" lon="6.93938">
        <ele>168.72065734863</ele>
        <time>2012-01-15T09:48:04Z</time>
      </trkpt>
      <trkpt lat="43.49325" lon="6.93975">
        <ele>171.57006835938</ele>
        <time>2012-01-15T09:48:08Z</time>
      </trkpt>
      <trkpt lat="43.49332" lon="6.94029">
        <ele>173.12562561035</ele>
        <time>2012-01-15T09:48:13Z</time>
      </trkpt>
      <trkpt lat="43.49337" lon="6.94092">
        <ele>166.1676940918</ele>
        <time>2012-01-15T09:48:19Z</time>
      </trkpt>
      <trkpt lat="43.49342" lon="6.94153">
        <ele>159.03742980957</ele>
        <time>2012-01-15T09:48:25Z</time>
      </trkpt>
      <trkpt lat="43.49347" lon="6.94218">
        <ele>147.85687255859</ele>
        <time>2012-01-15T09:48:31Z</time>
      </trkpt>
      <trkpt lat="43.49348" lon="6.94236">
        <ele>145.52140808106</ele>
        <time>2012-01-15T09:48:33Z</time>
      </trkpt>
      <trkpt lat="43.4935" lon="6.94243">
        <ele>144.70584106445</ele>
        <time>2012-01-15T09:48:34Z</time>
      </trkpt>
      <trkpt lat="43.49362" lon="6.94254">
        <ele>143.3878326416</ele>
        <time>2012-01-15T09:48:37Z</time>
      </trkpt>
      <trkpt lat="43.49376" lon="6.94254">
        <ele>142.63352966309</ele>
        <time>2012-01-15T09:48:39Z</time>
      </trkpt>
      <trkpt lat="43.49383" lon="6.94253">
        <ele>142.25953674316</ele>
        <time>2012-01-15T09:48:40Z</time>
      </trkpt>
      <trkpt lat="43.49414" lon="6.94254">
        <ele>146.84867858887</ele>
        <time>2012-01-15T09:48:45Z</time>
      </trkpt>
      <trkpt lat="43.4942" lon="6.94254">
        <ele>148.07914733887</ele>
        <time>2012-01-15T09:48:46Z</time>
      </trkpt>
      <trkpt lat="43.49435" lon="6.94253">
        <ele>151.88829040527</ele>
        <time>2012-01-15T09:48:49Z</time>
      </trkpt>
      <trkpt lat="43.4944" lon="6.94253">
        <ele>152.99942016602</ele>
        <time>2012-01-15T09:48:50Z</time>
      </trkpt>
      <trkpt lat="43.49456" lon="6.94251">
        <ele>156.55581665039</ele>
        <time>2012-01-15T09:48:54Z</time>
      </trkpt>
      <trkpt lat="43.49489" lon="6.94251">
        <ele>159.58306884766</ele>
        <time>2012-01-15T09:49:03Z</time>
      </trkpt>
      <trkpt lat="43.49518" lon="6.94247">
        <ele>159.43853759766</ele>
        <time>2012-01-15T09:49:11Z</time>
      </trkpt>
      <trkpt lat="43.49535" lon="6.94243">
        <ele>159.0693359375</ele>
        <time>2012-01-15T09:49:16Z</time>
      </trkpt>
      <trkpt lat="43.49546" lon="6.94251">
        <ele>158.00819396973</ele>
        <time>2012-01-15T09:49:21Z</time>
      </trkpt>
      <trkpt lat="43.4955" lon="6.94262">
        <ele>154.70060729981</ele>
        <time>2012-01-15T09:49:24Z</time>
      </trkpt>
      <trkpt lat="43.49553" lon="6.94264">
        <ele>154.06880187988</ele>
        <time>2012-01-15T09:49:25Z</time>
      </trkpt>
      <trkpt lat="43.49565" lon="6.94262">
        <ele>154.45390319824</ele>
        <time>2012-01-15T09:49:29Z</time>
      </trkpt>
      <trkpt lat="43.49573" lon="6.94251">
        <ele>157.14471435547</ele>
        <time>2012-01-15T09:49:34Z</time>
      </trkpt>
      <trkpt lat="43.49577" lon="6.94247">
        <ele>157.56153869629</ele>
        <time>2012-01-15T09:49:37Z</time>
      </trkpt>
      <trkpt lat="43.4958" lon="6.94245">
        <ele>157.60484313965</ele>
        <time>2012-01-15T09:49:39Z</time>
      </trkpt>
      <trkpt lat="43.49591" lon="6.94241">
        <ele>157.94119262695</ele>
        <time>2012-01-15T09:49:46Z</time>
      </trkpt>
      <trkpt lat="43.49607" lon="6.94236">
        <ele>158.55917358398</ele>
        <time>2012-01-15T09:49:55Z</time>
      </trkpt>
      <trkpt lat="43.49622" lon="6.94228">
        <ele>160.26724243164</ele>
        <time>2012-01-15T09:50:04Z</time>
      </trkpt>
      <trkpt lat="43.49633" lon="6.94219">
        <ele>161.68693542481</ele>
        <time>2012-01-15T09:50:10Z</time>
      </trkpt>
      <trkpt lat="43.49652" lon="6.94205">
        <ele>164.60647583008</ele>
        <time>2012-01-15T09:50:20Z</time>
      </trkpt>
      <trkpt lat="43.49664" lon="6.94195">
        <ele>167.50015258789</ele>
        <time>2012-01-15T09:50:27Z</time>
      </trkpt>
      <trkpt lat="43.49677" lon="6.9418">
        <ele>167.82870483398</ele>
        <time>2012-01-15T09:50:35Z</time>
      </trkpt>
      <trkpt lat="43.49688" lon="6.94169">
        <ele>167.68370056152</ele>
        <time>2012-01-15T09:50:42Z</time>
      </trkpt>
      <trkpt lat="43.49697" lon="6.94166">
        <ele>168.20497131348</ele>
        <time>2012-01-15T09:50:48Z</time>
      </trkpt>
      <trkpt lat="43.49698" lon="6.94165">
        <ele>168.22430419922</ele>
        <time>2012-01-15T09:50:49Z</time>
      </trkpt>
      <trkpt lat="43.49698" lon="6.94165">
        <ele>168.23159790039</ele>
        <time>2012-01-15T09:50:53Z</time>
      </trkpt>
      <trkpt lat="43.49701" lon="6.94163">
        <ele>168.36996459961</ele>
        <time>2012-01-15T09:51:12Z</time>
      </trkpt>
      <trkpt lat="43.49702" lon="6.94162">
        <ele>168.48736572266</ele>
        <time>2012-01-15T09:51:13Z</time>
      </trkpt>
      <trkpt lat="43.49706" lon="6.94162">
        <ele>168.80049133301</ele>
        <time>2012-01-15T09:51:16Z</time>
      </trkpt>
      <trkpt lat="43.49707" lon="6.94162">
        <ele>168.92817687988</ele>
        <time>2012-01-15T09:51:18Z</time>
      </trkpt>
      <trkpt lat="43.49709" lon="6.94164">
        <ele>169.27388000488</ele>
        <time>2012-01-15T09:51:42Z</time>
      </trkpt>
      <trkpt lat="43.49717" lon="6.94164">
        <ele>170.14527893066</ele>
        <time>2012-01-15T09:51:47Z</time>
      </trkpt>
      <trkpt lat="43.49725" lon="6.94165">
        <ele>171.17402648926</ele>
        <time>2012-01-15T09:51:51Z</time>
      </trkpt>
      <trkpt lat="43.49727" lon="6.94164">
        <ele>171.35336303711</ele>
        <time>2012-01-15T09:51:52Z</time>
      </trkpt>
      <trkpt lat="43.49739" lon="6.94163">
        <ele>172.97113037109</ele>
        <time>2012-01-15T09:51:58Z</time>
      </trkpt>
      <trkpt lat="43.4975" lon="6.94162">
        <ele>174.17993164062</ele>
        <time>2012-01-15T09:52:04Z</time>
      </trkpt>
      <trkpt lat="43.49763" lon="6.94161">
        <ele>176.15742492676</ele>
        <time>2012-01-15T09:52:11Z</time>
      </trkpt>
      <trkpt lat="43.49777" lon="6.94161">
        <ele>178.16166687012</ele>
        <time>2012-01-15T09:52:19Z</time>
      </trkpt>
      <trkpt lat="43.49793" lon="6.94155">
        <ele>177.90977478027</ele>
        <time>2012-01-15T09:52:28Z</time>
      </trkpt>
      <trkpt lat="43.4981" lon="6.94145">
        <ele>176.65168762207</ele>
        <time>2012-01-15T09:52:37Z</time>
      </trkpt>
      <trkpt lat="43.49825" lon="6.94139">
        <ele>175.07768249512</ele>
        <time>2012-01-15T09:52:45Z</time>
      </trkpt>
      <trkpt lat="43.49836" lon="6.94133">
        <ele>172.08427429199</ele>
        <time>2012-01-15T09:52:52Z</time>
      </trkpt>
      <trkpt lat="43.49839" lon="6.94132">
        <ele>171.93228149414</ele>
        <time>2012-01-15T09:52:54Z</time>
      </trkpt>
      <trkpt lat="43.49842" lon="6.94135">
        <ele>174.08218383789</ele>
        <time>2012-01-15T09:52:56Z</time>
      </trkpt>
      <trkpt lat="43.4984" lon="6.94143">
        <ele>177.56678771973</ele>
        <time>2012-01-15T09:53:00Z</time>
      </trkpt>
      <trkpt lat="43.49837" lon="6.94147">
        <ele>178.20852661133</ele>
        <time>2012-01-15T09:53:02Z</time>
      </trkpt>
      <trkpt lat="43.49829" lon="6.94156">
        <ele>180.36471557617</ele>
        <time>2012-01-15T09:53:08Z</time>
      </trkpt>
      <trkpt lat="43.49816" lon="6.94172">
        <ele>184.63905334473</ele>
        <time>2012-01-15T09:53:18Z</time>
      </trkpt>
      <trkpt lat="43.49809" lon="6.94183">
        <ele>187.58462524414</ele>
        <time>2012-01-15T09:53:24Z</time>
      </trkpt>
      <trkpt lat="43.49796" lon="6.94202">
        <ele>190.66506958008</ele>
        <time>2012-01-15T09:53:34Z</time>
      </trkpt>
      <trkpt lat="43.49787" lon="6.94213">
        <ele>190.57702636719</ele>
        <time>2012-01-15T09:53:41Z</time>
      </trkpt>
      <trkpt lat="43.49774" lon="6.94226">
        <ele>188.43788146973</ele>
        <time>2012-01-15T09:53:49Z</time>
      </trkpt>
      <trkpt lat="43.49766" lon="6.94241">
        <ele>187.56051635742</ele>
        <time>2012-01-15T09:53:56Z</time>
      </trkpt>
      <trkpt lat="43.49763" lon="6.94258">
        <ele>188.22146606445</ele>
        <time>2012-01-15T09:54:03Z</time>
      </trkpt>
      <trkpt lat="43.4976" lon="6.9427">
        <ele>188.65899658203</ele>
        <time>2012-01-15T09:54:09Z</time>
      </trkpt>
      <trkpt lat="43.49761" lon="6.94273">
        <ele>189.15524291992</ele>
        <time>2012-01-15T09:54:14Z</time>
      </trkpt>
      <trkpt lat="43.49759" lon="6.94282">
        <ele>188.36708068848</ele>
        <time>2012-01-15T09:54:22Z</time>
      </trkpt>
      <trkpt lat="43.49761" lon="6.943">
        <ele>187.27017211914</ele>
        <time>2012-01-15T09:54:27Z</time>
      </trkpt>
      <trkpt lat="43.4977" lon="6.94322">
        <ele>189.47113037109</ele>
        <time>2012-01-15T09:54:33Z</time>
      </trkpt>
      <trkpt lat="43.49782" lon="6.94344">
        <ele>191.77369689941</ele>
        <time>2012-01-15T09:54:41Z</time>
      </trkpt>
      <trkpt lat="43.49789" lon="6.94361">
        <ele>191.58920288086</ele>
        <time>2012-01-15T09:54:48Z</time>
      </trkpt>
      <trkpt lat="43.49789" lon="6.94364">
        <ele>191.31619262695</ele>
        <time>2012-01-15T09:54:49Z</time>
      </trkpt>
      <trkpt lat="43.4979" lon="6.94373">
        <ele>190.69821166992</ele>
        <time>2012-01-15T09:54:52Z</time>
      </trkpt>
      <trkpt lat="43.49791" lon="6.94395">
        <ele>188.70007324219</ele>
        <time>2012-01-15T09:54:59Z</time>
      </trkpt>
      <trkpt lat="43.49793" lon="6.94424">
        <ele>184.9397277832</ele>
        <time>2012-01-15T09:55:08Z</time>
      </trkpt>
      <trkpt lat="43.49796" lon="6.9445">
        <ele>179.35198974609</ele>
        <time>2012-01-15T09:55:16Z</time>
      </trkpt>
      <trkpt lat="43.49802" lon="6.94478">
        <ele>176.88583374023</ele>
        <time>2012-01-15T09:55:24Z</time>
      </trkpt>
      <trkpt lat="43.49812" lon="6.94508">
        <ele>175.7013092041</ele>
        <time>2012-01-15T09:55:33Z</time>
      </trkpt>
      <trkpt lat="43.49822" lon="6.94535">
        <ele>177.12515258789</ele>
        <time>2012-01-15T09:55:41Z</time>
      </trkpt>
      <trkpt lat="43.49835" lon="6.9456">
        <ele>181.82723999023</ele>
        <time>2012-01-15T09:55:49Z</time>
      </trkpt>
      <trkpt lat="43.49849" lon="6.94588">
        <ele>185.78474426269</ele>
        <time>2012-01-15T09:55:57Z</time>
      </trkpt>
      <trkpt lat="43.49866" lon="6.94618">
        <ele>188.28993225098</ele>
        <time>2012-01-15T09:56:06Z</time>
      </trkpt>
      <trkpt lat="43.49884" lon="6.94646">
        <ele>192.05827331543</ele>
        <time>2012-01-15T09:56:15Z</time>
      </trkpt>
      <trkpt lat="43.49907" lon="6.94676">
        <ele>194.86218261719</ele>
        <time>2012-01-15T09:56:25Z</time>
      </trkpt>
      <trkpt lat="43.49928" lon="6.94702">
        <ele>202.03532409668</ele>
        <time>2012-01-15T09:56:34Z</time>
      </trkpt>
      <trkpt lat="43.49942" lon="6.94717">
        <ele>204.38493347168</ele>
        <time>2012-01-15T09:56:40Z</time>
      </trkpt>
      <trkpt lat="43.4996" lon="6.94732">
        <ele>209.91413879394</ele>
        <time>2012-01-15T09:56:47Z</time>
      </trkpt>
      <trkpt lat="43.49984" lon="6.94751">
        <ele>215.21208190918</ele>
        <time>2012-01-15T09:56:56Z</time>
      </trkpt>
      <trkpt lat="43.50004" lon="6.94765">
        <ele>217.19595336914</ele>
        <time>2012-01-15T09:57:03Z</time>
      </trkpt>
      <trkpt lat="43.50024" lon="6.94777">
        <ele>215.80178833008</ele>
        <time>2012-01-15T09:57:10Z</time>
      </trkpt>
      <trkpt lat="43.50048" lon="6.94791">
        <ele>217.26609802246</ele>
        <time>2012-01-15T09:57:19Z</time>
      </trkpt>
      <trkpt lat="43.50057" lon="6.94796">
        <ele>218.02696228027</ele>
        <time>2012-01-15T09:57:23Z</time>
      </trkpt>
      <trkpt lat="43.50059" lon="6.94797">
        <ele>218.05331420898</ele>
        <time>2012-01-15T09:57:24Z</time>
      </trkpt>
      <trkpt lat="43.50061" lon="6.94796">
        <ele>218.17620849609</ele>
        <time>2012-01-15T09:57:28Z</time>
      </trkpt>
      <trkpt lat="43.50062" lon="6.94795">
        <ele>218.29371643066</ele>
        <time>2012-01-15T09:57:35Z</time>
      </trkpt>
      <trkpt lat="43.50031" lon="6.94726">
        <ele>229.80523681641</ele>
        <time>2012-01-15T09:59:33Z</time>
      </trkpt>
      <trkpt lat="43.50031" lon="6.94726">
        <ele>229.87477111816</ele>
        <time>2012-01-15T09:59:34Z</time>
      </trkpt>
      <trkpt lat="43.50028" lon="6.94723">
        <ele>231.88214111328</ele>
        <time>2012-01-15T09:59:38Z</time>
      </trkpt>
      <trkpt lat="43.50027" lon="6.94719">
        <ele>232.8250579834</ele>
        <time>2012-01-15T09:59:45Z</time>
      </trkpt>
      <trkpt lat="43.50027" lon="6.94714">
        <ele>233.73626708984</ele>
        <time>2012-01-15T09:59:50Z</time>
      </trkpt>
      <trkpt lat="43.50026" lon="6.94708">
        <ele>235.13186645508</ele>
        <time>2012-01-15T09:59:56Z</time>
      </trkpt>
      <trkpt lat="43.50025" lon="6.94703">
        <ele>236.4287109375</ele>
        <time>2012-01-15T10:00:03Z</time>
      </trkpt>
      <trkpt lat="43.50023" lon="6.94698">
        <ele>237.6657409668</ele>
        <time>2012-01-15T10:00:10Z</time>
      </trkpt>
      <trkpt lat="43.50021" lon="6.94695">
        <ele>238.32402038574</ele>
        <time>2012-01-15T10:00:13Z</time>
      </trkpt>
      <trkpt lat="43.50019" lon="6.94693">
        <ele>238.69647216797</ele>
        <time>2012-01-15T10:00:17Z</time>
      </trkpt>
      <trkpt lat="43.50015" lon="6.94685">
        <ele>239.2737121582</ele>
        <time>2012-01-15T10:00:26Z</time>
      </trkpt>
      <trkpt lat="43.50013" lon="6.94677">
        <ele>239.64665222168</ele>
        <time>2012-01-15T10:00:35Z</time>
      </trkpt>
      <trkpt lat="43.50011" lon="6.9467">
        <ele>239.89868164062</ele>
        <time>2012-01-15T10:00:42Z</time>
      </trkpt>
      <trkpt lat="43.50009" lon="6.94663">
        <ele>240</ele>
        <time>2012-01-15T10:00:50Z</time>
      </trkpt>
      <trkpt lat="43.50007" lon="6.94657">
        <ele>240</ele>
        <time>2012-01-15T10:00:56Z</time>
      </trkpt>
      <trkpt lat="43.50003" lon="6.94649">
        <ele>240</ele>
        <time>2012-01-15T10:01:06Z</time>
      </trkpt>
      <trkpt lat="43.49998" lon="6.94644">
        <ele>240</ele>
        <time>2012-01-15T10:01:14Z</time>
      </trkpt>
      <trkpt lat="43.49996" lon="6.94637">
        <ele>240</ele>
        <time>2012-01-15T10:01:21Z</time>
      </trkpt>
      <trkpt lat="43.49995" lon="6.94626">
        <ele>240</ele>
        <time>2012-01-15T10:01:31Z</time>
      </trkpt>
      <trkpt lat="43.49994" lon="6.94625">
        <ele>240</ele>
        <time>2012-01-15T10:01:32Z</time>
      </trkpt>
      <trkpt lat="43.49993" lon="6.94619">
        <ele>240</ele>
        <time>2012-01-15T10:01:37Z</time>
      </trkpt>
      <trkpt lat="43.49994" lon="6.94615">
        <ele>240</ele>
        <time>2012-01-15T10:01:40Z</time>
      </trkpt>
      <trkpt lat="43.49992" lon="6.94612">
        <ele>240</ele>
        <time>2012-01-15T10:01:43Z</time>
      </trkpt>
      <trkpt lat="43.4999" lon="6.94609">
        <ele>240</ele>
        <time>2012-01-15T10:01:45Z</time>
      </trkpt>
      <trkpt lat="43.49987" lon="6.94599">
        <ele>240</ele>
        <time>2012-01-15T10:01:50Z</time>
      </trkpt>
      <trkpt lat="43.49984" lon="6.94593">
        <ele>240</ele>
        <time>2012-01-15T10:01:54Z</time>
      </trkpt>
      <trkpt lat="43.49982" lon="6.94593">
        <ele>240</ele>
        <time>2012-01-15T10:01:56Z</time>
      </trkpt>
      <trkpt lat="43.49979" lon="6.94594">
        <ele>240</ele>
        <time>2012-01-15T10:02:00Z</time>
      </trkpt>
      <trkpt lat="43.49979" lon="6.94593">
        <ele>240</ele>
        <time>2012-01-15T10:02:01Z</time>
      </trkpt>
      <trkpt lat="43.49977" lon="6.94593">
        <ele>240</ele>
        <time>2012-01-15T10:02:04Z</time>
      </trkpt>
      <trkpt lat="43.49975" lon="6.94595">
        <ele>240</ele>
        <time>2012-01-15T10:02:11Z</time>
      </trkpt>
      <trkpt lat="43.49974" lon="6.94595">
        <ele>240</ele>
        <time>2012-01-15T10:02:17Z</time>
      </trkpt>
      <trkpt lat="43.49915" lon="6.94503">
        <ele>230.55986022949</ele>
        <time>2012-01-15T10:17:53Z</time>
      </trkpt>
      <trkpt lat="43.49912" lon="6.94497">
        <ele>229.55337524414</ele>
        <time>2012-01-15T10:17:54Z</time>
      </trkpt>
      <trkpt lat="43.499" lon="6.94485">
        <ele>225.87805175781</ele>
        <time>2012-01-15T10:17:57Z</time>
      </trkpt>
      <trkpt lat="43.49893" lon="6.94468">
        <ele>223.96350097656</ele>
        <time>2012-01-15T10:18:01Z</time>
      </trkpt>
      <trkpt lat="43.49892" lon="6.94463">
        <ele>223.94697570801</ele>
        <time>2012-01-15T10:18:02Z</time>
      </trkpt>
      <trkpt lat="43.49889" lon="6.94459">
        <ele>223.57539367676</ele>
        <time>2012-01-15T10:18:03Z</time>
      </trkpt>
      <trkpt lat="43.49883" lon="6.94452">
        <ele>222.77107238769</ele>
        <time>2012-01-15T10:18:05Z</time>
      </trkpt>
      <trkpt lat="43.49877" lon="6.9444">
        <ele>222.21620178223</ele>
        <time>2012-01-15T10:18:08Z</time>
      </trkpt>
      <trkpt lat="43.49871" lon="6.94435">
        <ele>221.30914306641</ele>
        <time>2012-01-15T10:18:11Z</time>
      </trkpt>
      <trkpt lat="43.49873" lon="6.94425">
        <ele>221.36445617676</ele>
        <time>2012-01-15T10:18:14Z</time>
      </trkpt>
      <trkpt lat="43.49876" lon="6.94412">
        <ele>221.65161132812</ele>
        <time>2012-01-15T10:18:18Z</time>
      </trkpt>
      <trkpt lat="43.49878" lon="6.94411">
        <ele>221.77520751953</ele>
        <time>2012-01-15T10:18:20Z</time>
      </trkpt>
      <trkpt lat="43.49879" lon="6.9441">
        <ele>221.89880371094</ele>
        <time>2012-01-15T10:18:21Z</time>
      </trkpt>
      <trkpt lat="43.4988" lon="6.94402">
        <ele>222.02239990234</ele>
        <time>2012-01-15T10:18:24Z</time>
      </trkpt>
      <trkpt lat="43.49885" lon="6.94392">
        <ele>222.59918212891</ele>
        <time>2012-01-15T10:18:26Z</time>
      </trkpt>
      <trkpt lat="43.49888" lon="6.94379">
        <ele>222.59934997559</ele>
        <time>2012-01-15T10:18:28Z</time>
      </trkpt>
      <trkpt lat="43.49887" lon="6.94367">
        <ele>222.14920043945</ele>
        <time>2012-01-15T10:18:31Z</time>
      </trkpt>
      <trkpt lat="43.49881" lon="6.94345">
        <ele>221.29487609863</ele>
        <time>2012-01-15T10:18:35Z</time>
      </trkpt>
      <trkpt lat="43.49879" lon="6.94328">
        <ele>220.65316772461</ele>
        <time>2012-01-15T10:18:39Z</time>
      </trkpt>
      <trkpt lat="43.49881" lon="6.9432">
        <ele>220.25610351562</ele>
        <time>2012-01-15T10:18:41Z</time>
      </trkpt>
      <trkpt lat="43.49883" lon="6.94313">
        <ele>219.94677734375</ele>
        <time>2012-01-15T10:18:43Z</time>
      </trkpt>
      <trkpt lat="43.49885" lon="6.94311">
        <ele>219.96792602539</ele>
        <time>2012-01-15T10:18:44Z</time>
      </trkpt>
      <trkpt lat="43.49889" lon="6.94306">
        <ele>219.98725891113</ele>
        <time>2012-01-15T10:18:46Z</time>
      </trkpt>
      <trkpt lat="43.49891" lon="6.94302">
        <ele>219.42822265625</ele>
        <time>2012-01-15T10:18:48Z</time>
      </trkpt>
      <trkpt lat="43.49894" lon="6.94297">
        <ele>218.3512878418</ele>
        <time>2012-01-15T10:18:50Z</time>
      </trkpt>
      <trkpt lat="43.49892" lon="6.9429">
        <ele>217.20245361328</ele>
        <time>2012-01-15T10:18:53Z</time>
      </trkpt>
      <trkpt lat="43.49894" lon="6.9428">
        <ele>215.27241516113</ele>
        <time>2012-01-15T10:18:56Z</time>
      </trkpt>
      <trkpt lat="43.49896" lon="6.94273">
        <ele>213.8796081543</ele>
        <time>2012-01-15T10:18:59Z</time>
      </trkpt>
      <trkpt lat="43.49891" lon="6.94267">
        <ele>212.8942565918</ele>
        <time>2012-01-15T10:19:02Z</time>
      </trkpt>
      <trkpt lat="43.49896" lon="6.9426">
        <ele>211.48835754394</ele>
        <time>2012-01-15T10:19:05Z</time>
      </trkpt>
      <trkpt lat="43.49891" lon="6.94256">
        <ele>211.05404663086</ele>
        <time>2012-01-15T10:19:08Z</time>
      </trkpt>
      <trkpt lat="43.49881" lon="6.94248">
        <ele>209.13018798828</ele>
        <time>2012-01-15T10:19:11Z</time>
      </trkpt>
      <trkpt lat="43.49876" lon="6.94236">
        <ele>207.10458374023</ele>
        <time>2012-01-15T10:19:14Z</time>
      </trkpt>
      <trkpt lat="43.49875" lon="6.94232">
        <ele>206.4248046875</ele>
        <time>2012-01-15T10:19:15Z</time>
      </trkpt>
      <trkpt lat="43.49876" lon="6.94217">
        <ele>204.2713470459</ele>
        <time>2012-01-15T10:19:17Z</time>
      </trkpt>
      <trkpt lat="43.49881" lon="6.94217">
        <ele>204.60243225098</ele>
        <time>2012-01-15T10:19:18Z</time>
      </trkpt>
      <trkpt lat="43.4989" lon="6.94221">
        <ele>205.7643737793</ele>
        <time>2012-01-15T10:19:20Z</time>
      </trkpt>
      <trkpt lat="43.49897" lon="6.94218">
        <ele>204.89405822754</ele>
        <time>2012-01-15T10:19:24Z</time>
      </trkpt>
      <trkpt lat="43.49901" lon="6.94214">
        <ele>204.00141906738</ele>
        <time>2012-01-15T10:19:27Z</time>
      </trkpt>
      <trkpt lat="43.49903" lon="6.94212">
        <ele>203.72676086426</ele>
        <time>2012-01-15T10:19:28Z</time>
      </trkpt>
      <trkpt lat="43.49916" lon="6.94206">
        <ele>202.03588867188</ele>
        <time>2012-01-15T10:19:33Z</time>
      </trkpt>
      <trkpt lat="43.49933" lon="6.94209">
        <ele>199.97985839844</ele>
        <time>2012-01-15T10:19:37Z</time>
      </trkpt>
      <trkpt lat="43.4995" lon="6.94215">
        <ele>199.70355224609</ele>
        <time>2012-01-15T10:19:41Z</time>
      </trkpt>
      <trkpt lat="43.49953" lon="6.94217">
        <ele>200.19221496582</ele>
        <time>2012-01-15T10:19:42Z</time>
      </trkpt>
      <trkpt lat="43.49957" lon="6.94217">
        <ele>199.84899902344</ele>
        <time>2012-01-15T10:19:43Z</time>
      </trkpt>
      <trkpt lat="43.49966" lon="6.9422">
        <ele>200.37545776367</ele>
        <time>2012-01-15T10:19:45Z</time>
      </trkpt>
      <trkpt lat="43.49976" lon="6.94224">
        <ele>199.99075317383</ele>
        <time>2012-01-15T10:19:47Z</time>
      </trkpt>
      <trkpt lat="43.49981" lon="6.94227">
        <ele>198.66123962402</ele>
        <time>2012-01-15T10:19:48Z</time>
      </trkpt>
      <trkpt lat="43.49986" lon="6.94232">
        <ele>198.00903320312</ele>
        <time>2012-01-15T10:19:49Z</time>
      </trkpt>
      <trkpt lat="43.49994" lon="6.9424">
        <ele>197.78398132324</ele>
        <time>2012-01-15T10:19:51Z</time>
      </trkpt>
      <trkpt lat="43.50005" lon="6.94245">
        <ele>196.49645996094</ele>
        <time>2012-01-15T10:19:53Z</time>
      </trkpt>
      <trkpt lat="43.50014" lon="6.9425">
        <ele>194.66914367676</ele>
        <time>2012-01-15T10:19:55Z</time>
      </trkpt>
      <trkpt lat="43.50026" lon="6.94253">
        <ele>191.56190490723</ele>
        <time>2012-01-15T10:19:57Z</time>
      </trkpt>
      <trkpt lat="43.5004" lon="6.94256">
        <ele>189.34712219238</ele>
        <time>2012-01-15T10:20:00Z</time>
      </trkpt>
      <trkpt lat="43.5004" lon="6.94255">
        <ele>188.79618835449</ele>
        <time>2012-01-15T10:20:01Z</time>
      </trkpt>
      <trkpt lat="43.50033" lon="6.94246">
        <ele>187.95216369629</ele>
        <time>2012-01-15T10:20:04Z</time>
      </trkpt>
      <trkpt lat="43.5003" lon="6.94241">
        <ele>187.38563537598</ele>
        <time>2012-01-15T10:20:05Z</time>
      </trkpt>
      <trkpt lat="43.50025" lon="6.9423">
        <ele>185.6399230957</ele>
        <time>2012-01-15T10:20:08Z</time>
      </trkpt>
      <trkpt lat="43.50017" lon="6.94218">
        <ele>184.20394897461</ele>
        <time>2012-01-15T10:20:12Z</time>
      </trkpt>
      <trkpt lat="43.50013" lon="6.94217">
        <ele>184.70175170898</ele>
        <time>2012-01-15T10:20:13Z</time>
      </trkpt>
      <trkpt lat="43.50005" lon="6.9421">
        <ele>183.29150390625</ele>
        <time>2012-01-15T10:20:15Z</time>
      </trkpt>
      <trkpt lat="43.4999" lon="6.94192">
        <ele>179.56689453125</ele>
        <time>2012-01-15T10:20:20Z</time>
      </trkpt>
      <trkpt lat="43.49986" lon="6.9419">
        <ele>180.00762939453</ele>
        <time>2012-01-15T10:20:23Z</time>
      </trkpt>
      <trkpt lat="43.49976" lon="6.94185">
        <ele>180.84802246094</ele>
        <time>2012-01-15T10:20:29Z</time>
      </trkpt>
      <trkpt lat="43.49974" lon="6.94181">
        <ele>179.65185546875</ele>
        <time>2012-01-15T10:20:30Z</time>
      </trkpt>
      <trkpt lat="43.49969" lon="6.94173">
        <ele>177.13296508789</ele>
        <time>2012-01-15T10:20:33Z</time>
      </trkpt>
      <trkpt lat="43.49953" lon="6.94164">
        <ele>174.76924133301</ele>
        <time>2012-01-15T10:20:38Z</time>
      </trkpt>
      <trkpt lat="43.49937" lon="6.94156">
        <ele>174.60621643066</ele>
        <time>2012-01-15T10:20:43Z</time>
      </trkpt>
      <trkpt lat="43.49922" lon="6.94151">
        <ele>175.04089355469</ele>
        <time>2012-01-15T10:20:47Z</time>
      </trkpt>
      <trkpt lat="43.49905" lon="6.94147">
        <ele>177.91444396973</ele>
        <time>2012-01-15T10:20:52Z</time>
      </trkpt>
      <trkpt lat="43.49903" lon="6.94143">
        <ele>177.37541198731</ele>
        <time>2012-01-15T10:20:53Z</time>
      </trkpt>
      <trkpt lat="43.49897" lon="6.94138">
        <ele>176.72184753418</ele>
        <time>2012-01-15T10:20:55Z</time>
      </trkpt>
      <trkpt lat="43.49882" lon="6.94134">
        <ele>176.37481689453</ele>
        <time>2012-01-15T10:20:59Z</time>
      </trkpt>
      <trkpt lat="43.49859" lon="6.94136">
        <ele>177.55012512207</ele>
        <time>2012-01-15T10:21:04Z</time>
      </trkpt>
      <trkpt lat="43.49855" lon="6.94137">
        <ele>177.68782043457</ele>
        <time>2012-01-15T10:21:05Z</time>
      </trkpt>
      <trkpt lat="43.49843" lon="6.94144">
        <ele>178.29168701172</ele>
        <time>2012-01-15T10:21:08Z</time>
      </trkpt>
      <trkpt lat="43.49827" lon="6.94154">
        <ele>179.66297912598</ele>
        <time>2012-01-15T10:21:12Z</time>
      </trkpt>
      <trkpt lat="43.49823" lon="6.94158">
        <ele>180.76876831055</ele>
        <time>2012-01-15T10:21:14Z</time>
      </trkpt>
      <trkpt lat="43.49816" lon="6.94168">
        <ele>183.09582519531</ele>
        <time>2012-01-15T10:21:19Z</time>
      </trkpt>
      <trkpt lat="43.49807" lon="6.94174">
        <ele>184.36285400391</ele>
        <time>2012-01-15T10:21:22Z</time>
      </trkpt>
      <trkpt lat="43.498" lon="6.94178">
        <ele>184.89643859863</ele>
        <time>2012-01-15T10:21:24Z</time>
      </trkpt>
      <trkpt lat="43.49786" lon="6.94188">
        <ele>184.63101196289</ele>
        <time>2012-01-15T10:21:29Z</time>
      </trkpt>
      <trkpt lat="43.49765" lon="6.94197">
        <ele>182.53346252441</ele>
        <time>2012-01-15T10:21:36Z</time>
      </trkpt>
      <trkpt lat="43.4975" lon="6.94201">
        <ele>180.51202392578</ele>
        <time>2012-01-15T10:21:43Z</time>
      </trkpt>
      <trkpt lat="43.49734" lon="6.94209">
        <ele>178.22169494629</ele>
        <time>2012-01-15T10:21:50Z</time>
      </trkpt>
      <trkpt lat="43.49716" lon="6.94218">
        <ele>174.6886138916</ele>
        <time>2012-01-15T10:21:55Z</time>
      </trkpt>
      <trkpt lat="43.49704" lon="6.94218">
        <ele>172.27651977539</ele>
        <time>2012-01-15T10:21:59Z</time>
      </trkpt>
      <trkpt lat="43.49702" lon="6.94214">
        <ele>172.00727844238</ele>
        <time>2012-01-15T10:22:00Z</time>
      </trkpt>
      <trkpt lat="43.49701" lon="6.94204">
        <ele>172.33393859863</ele>
        <time>2012-01-15T10:22:03Z</time>
      </trkpt>
      <trkpt lat="43.49704" lon="6.94193">
        <ele>173.17611694336</ele>
        <time>2012-01-15T10:22:07Z</time>
      </trkpt>
      <trkpt lat="43.49707" lon="6.9419">
        <ele>173.08877563477</ele>
        <time>2012-01-15T10:22:08Z</time>
      </trkpt>
      <trkpt lat="43.49708" lon="6.94184">
        <ele>172.36735534668</ele>
        <time>2012-01-15T10:22:10Z</time>
      </trkpt>
      <trkpt lat="43.49706" lon="6.94181">
        <ele>171.59309387207</ele>
        <time>2012-01-15T10:22:11Z</time>
      </trkpt>
      <trkpt lat="43.49696" lon="6.94164">
        <ele>167.89520263672</ele>
        <time>2012-01-15T10:22:15Z</time>
      </trkpt>
      <trkpt lat="43.49689" lon="6.9415">
        <ele>166.22094726562</ele>
        <time>2012-01-15T10:22:18Z</time>
      </trkpt>
      <trkpt lat="43.4969" lon="6.94144">
        <ele>165.84672546387</ele>
        <time>2012-01-15T10:22:19Z</time>
      </trkpt>
      <trkpt lat="43.49691" lon="6.94132">
        <ele>164.67797851562</ele>
        <time>2012-01-15T10:22:22Z</time>
      </trkpt>
      <trkpt lat="43.49693" lon="6.94128">
        <ele>164.24443054199</ele>
        <time>2012-01-15T10:22:23Z</time>
      </trkpt>
      <trkpt lat="43.49688" lon="6.94111">
        <ele>161.49142456055</ele>
        <time>2012-01-15T10:22:27Z</time>
      </trkpt>
      <trkpt lat="43.49678" lon="6.94102">
        <ele>159.50015258789</ele>
        <time>2012-01-15T10:22:30Z</time>
      </trkpt>
      <trkpt lat="43.49673" lon="6.94088">
        <ele>157.06942749023</ele>
        <time>2012-01-15T10:22:33Z</time>
      </trkpt>
      <trkpt lat="43.49668" lon="6.94063">
        <ele>153.14181518555</ele>
        <time>2012-01-15T10:22:37Z</time>
      </trkpt>
      <trkpt lat="43.49673" lon="6.94048">
        <ele>151.0458984375</ele>
        <time>2012-01-15T10:22:40Z</time>
      </trkpt>
      <trkpt lat="43.49669" lon="6.94034">
        <ele>148.19287109375</ele>
        <time>2012-01-15T10:22:43Z</time>
      </trkpt>
      <trkpt lat="43.49672" lon="6.94027">
        <ele>147.36276245117</ele>
        <time>2012-01-15T10:22:45Z</time>
      </trkpt>
      <trkpt lat="43.49676" lon="6.94014">
        <ele>145.76287841797</ele>
        <time>2012-01-15T10:22:48Z</time>
      </trkpt>
      <trkpt lat="43.49676" lon="6.93995">
        <ele>142.66264343262</ele>
        <time>2012-01-15T10:22:52Z</time>
      </trkpt>
      <trkpt lat="43.49677" lon="6.93981">
        <ele>139.91711425781</ele>
        <time>2012-01-15T10:22:55Z</time>
      </trkpt>
      <trkpt lat="43.49675" lon="6.93964">
        <ele>135.97395324707</ele>
        <time>2012-01-15T10:22:58Z</time>
      </trkpt>
      <trkpt lat="43.49669" lon="6.93956">
        <ele>133.05209350586</ele>
        <time>2012-01-15T10:23:01Z</time>
      </trkpt>
      <trkpt lat="43.49663" lon="6.93947">
        <ele>129.93041992188</ele>
        <time>2012-01-15T10:23:05Z</time>
      </trkpt>
      <trkpt lat="43.49654" lon="6.93946">
        <ele>127.63874816894</ele>
        <time>2012-01-15T10:23:09Z</time>
      </trkpt>
      <trkpt lat="43.49643" lon="6.93928">
        <ele>122.41492462158</ele>
        <time>2012-01-15T10:23:13Z</time>
      </trkpt>
      <trkpt lat="43.49645" lon="6.93908">
        <ele>118.8918762207</ele>
        <time>2012-01-15T10:23:16Z</time>
      </trkpt>
      <trkpt lat="43.49656" lon="6.93887">
        <ele>115.75347900391</ele>
        <time>2012-01-15T10:23:20Z</time>
      </trkpt>
      <trkpt lat="43.4966" lon="6.93882">
        <ele>115.13433074951</ele>
        <time>2012-01-15T10:23:21Z</time>
      </trkpt>
      <trkpt lat="43.49664" lon="6.93871">
        <ele>113.67786407471</ele>
        <time>2012-01-15T10:23:23Z</time>
      </trkpt>
      <trkpt lat="43.49668" lon="6.93861">
        <ele>112.17141723633</ele>
        <time>2012-01-15T10:23:25Z</time>
      </trkpt>
      <trkpt lat="43.49674" lon="6.93839">
        <ele>110.11148071289</ele>
        <time>2012-01-15T10:23:29Z</time>
      </trkpt>
      <trkpt lat="43.49685" lon="6.93816">
        <ele>107.0479888916</ele>
        <time>2012-01-15T10:23:33Z</time>
      </trkpt>
      <trkpt lat="43.49692" lon="6.93806">
        <ele>105.72089385986</ele>
        <time>2012-01-15T10:23:35Z</time>
      </trkpt>
      <trkpt lat="43.49695" lon="6.938">
        <ele>104.79406738281</ele>
        <time>2012-01-15T10:23:36Z</time>
      </trkpt>
      <trkpt lat="43.49699" lon="6.93794">
        <ele>103.47570800781</ele>
        <time>2012-01-15T10:23:37Z</time>
      </trkpt>
      <trkpt lat="43.49713" lon="6.93773">
        <ele>98.753074645996</ele>
        <time>2012-01-15T10:23:41Z</time>
      </trkpt>
      <trkpt lat="43.4972" lon="6.9376">
        <ele>95.384010314941</ele>
        <time>2012-01-15T10:23:45Z</time>
      </trkpt>
      <trkpt lat="43.49729" lon="6.93756">
        <ele>94.50203704834</ele>
        <time>2012-01-15T10:23:49Z</time>
      </trkpt>
      <trkpt lat="43.49737" lon="6.93755">
        <ele>94.225662231445</ele>
        <time>2012-01-15T10:23:51Z</time>
      </trkpt>
      <trkpt lat="43.49746" lon="6.93756">
        <ele>94.405906677246</ele>
        <time>2012-01-15T10:23:53Z</time>
      </trkpt>
      <trkpt lat="43.4976" lon="6.93767">
        <ele>95.940238952637</ele>
        <time>2012-01-15T10:23:57Z</time>
      </trkpt>
      <trkpt lat="43.49765" lon="6.93768">
        <ele>95.64217376709</ele>
        <time>2012-01-15T10:23:59Z</time>
      </trkpt>
      <trkpt lat="43.49768" lon="6.93767">
        <ele>94.907363891602</ele>
        <time>2012-01-15T10:24:00Z</time>
      </trkpt>
      <trkpt lat="43.49778" lon="6.93764">
        <ele>92.848373413086</ele>
        <time>2012-01-15T10:24:04Z</time>
      </trkpt>
      <trkpt lat="43.49782" lon="6.93757">
        <ele>90.397048950195</ele>
        <time>2012-01-15T10:24:07Z</time>
      </trkpt>
      <trkpt lat="43.49788" lon="6.93746">
        <ele>85.906295776367</ele>
        <time>2012-01-15T10:24:11Z</time>
      </trkpt>
      <trkpt lat="43.49796" lon="6.93753">
        <ele>85.432601928711</ele>
        <time>2012-01-15T10:24:14Z</time>
      </trkpt>
      <trkpt lat="43.49798" lon="6.93766">
        <ele>87.568069458008</ele>
        <time>2012-01-15T10:24:17Z</time>
      </trkpt>
      <trkpt lat="43.498" lon="6.93776">
        <ele>89.274383544922</ele>
        <time>2012-01-15T10:24:19Z</time>
      </trkpt>
      <trkpt lat="43.49803" lon="6.9379">
        <ele>92.569770812988</ele>
        <time>2012-01-15T10:24:22Z</time>
      </trkpt>
      <trkpt lat="43.49802" lon="6.93807">
        <ele>98.087532043457</ele>
        <time>2012-01-15T10:24:27Z</time>
      </trkpt>
      <trkpt lat="43.49809" lon="6.93813">
        <ele>97.547355651855</ele>
        <time>2012-01-15T10:24:30Z</time>
      </trkpt>
      <trkpt lat="43.49812" lon="6.93807">
        <ele>95.340850830078</ele>
        <time>2012-01-15T10:24:33Z</time>
      </trkpt>
      <trkpt lat="43.49814" lon="6.93799">
        <ele>92.297134399414</ele>
        <time>2012-01-15T10:24:35Z</time>
      </trkpt>
      <trkpt lat="43.49817" lon="6.93792">
        <ele>89.28271484375</ele>
        <time>2012-01-15T10:24:37Z</time>
      </trkpt>
      <trkpt lat="43.49817" lon="6.93788">
        <ele>87.811897277832</ele>
        <time>2012-01-15T10:24:38Z</time>
      </trkpt>
      <trkpt lat="43.49822" lon="6.93769">
        <ele>81.347061157227</ele>
        <time>2012-01-15T10:24:43Z</time>
      </trkpt>
      <trkpt lat="43.49826" lon="6.93757">
        <ele>77.601409912109</ele>
        <time>2012-01-15T10:24:47Z</time>
      </trkpt>
      <trkpt lat="43.49831" lon="6.93741">
        <ele>71.654174804688</ele>
        <time>2012-01-15T10:24:51Z</time>
      </trkpt>
      <trkpt lat="43.49837" lon="6.93729">
        <ele>66.680725097656</ele>
        <time>2012-01-15T10:24:55Z</time>
      </trkpt>
      <trkpt lat="43.49839" lon="6.93726">
        <ele>65.268516540527</ele>
        <time>2012-01-15T10:24:56Z</time>
      </trkpt>
      <trkpt lat="43.49841" lon="6.93712">
        <ele>61.728424072266</ele>
        <time>2012-01-15T10:25:00Z</time>
      </trkpt>
      <trkpt lat="43.49846" lon="6.93695">
        <ele>58.6572265625</ele>
        <time>2012-01-15T10:25:05Z</time>
      </trkpt>
      <trkpt lat="43.49848" lon="6.93694">
        <ele>58.476142883301</ele>
        <time>2012-01-15T10:25:06Z</time>
      </trkpt>
      <trkpt lat="43.49853" lon="6.93693">
        <ele>58.264999389648</ele>
        <time>2012-01-15T10:25:08Z</time>
      </trkpt>
      <trkpt lat="43.49862" lon="6.93697">
        <ele>58.154216766357</ele>
        <time>2012-01-15T10:25:12Z</time>
      </trkpt>
      <trkpt lat="43.49865" lon="6.93688">
        <ele>57.624702453613</ele>
        <time>2012-01-15T10:25:15Z</time>
      </trkpt>
      <trkpt lat="43.4987" lon="6.93677">
        <ele>57.042770385742</ele>
        <time>2012-01-15T10:25:18Z</time>
      </trkpt>
      <trkpt lat="43.49873" lon="6.93673">
        <ele>56.799011230469</ele>
        <time>2012-01-15T10:25:19Z</time>
      </trkpt>
      <trkpt lat="43.49875" lon="6.9367">
        <ele>56.615333557129</ele>
        <time>2012-01-15T10:25:20Z</time>
      </trkpt>
      <trkpt lat="43.49875" lon="6.93667">
        <ele>56.526069641113</ele>
        <time>2012-01-15T10:25:21Z</time>
      </trkpt>
      <trkpt lat="43.49748" lon="6.93581">
        <ele>60</ele>
        <time>2012-01-15T10:30:29Z</time>
      </trkpt>
      <trkpt lat="43.49747" lon="6.93579">
        <ele>60</ele>
        <time>2012-01-15T10:30:30Z</time>
      </trkpt>
      <trkpt lat="43.49733" lon="6.93571">
        <ele>60</ele>
        <time>2012-01-15T10:30:37Z</time>
      </trkpt>
      <trkpt lat="43.49715" lon="6.93568">
        <ele>60</ele>
        <time>2012-01-15T10:30:46Z</time>
      </trkpt>
      <trkpt lat="43.49699" lon="6.93572">
        <ele>60</ele>
        <time>2012-01-15T10:30:53Z</time>
      </trkpt>
      <trkpt lat="43.49683" lon="6.93588">
        <ele>59.743076324463</ele>
        <time>2012-01-15T10:31:01Z</time>
      </trkpt>
      <trkpt lat="43.49669" lon="6.93606">
        <ele>59.096576690674</ele>
        <time>2012-01-15T10:31:09Z</time>
      </trkpt>
      <trkpt lat="43.49659" lon="6.93624">
        <ele>59.618392944336</ele>
        <time>2012-01-15T10:31:16Z</time>
      </trkpt>
      <trkpt lat="43.49643" lon="6.93649">
        <ele>61.486911773682</ele>
        <time>2012-01-15T10:31:25Z</time>
      </trkpt>
      <trkpt lat="43.49631" lon="6.93663">
        <ele>66.471672058105</ele>
        <time>2012-01-15T10:31:32Z</time>
      </trkpt>
      <trkpt lat="43.49623" lon="6.93671">
        <ele>69.325508117676</ele>
        <time>2012-01-15T10:31:39Z</time>
      </trkpt>
      <trkpt lat="43.49622" lon="6.93671">
        <ele>69.688346862793</ele>
        <time>2012-01-15T10:32:40Z</time>
      </trkpt>
      <trkpt lat="43.49617" lon="6.93674">
        <ele>71.137580871582</ele>
        <time>2012-01-15T10:32:43Z</time>
      </trkpt>
      <trkpt lat="43.49609" lon="6.93668">
        <ele>72.532325744629</ele>
        <time>2012-01-15T10:32:48Z</time>
      </trkpt>
      <trkpt lat="43.49611" lon="6.93658">
        <ele>71.324928283691</ele>
        <time>2012-01-15T10:32:52Z</time>
      </trkpt>
      <trkpt lat="43.49612" lon="6.93656">
        <ele>70.82869720459</ele>
        <time>2012-01-15T10:32:53Z</time>
      </trkpt>
      <trkpt lat="43.49621" lon="6.93639">
        <ele>66.504196166992</ele>
        <time>2012-01-15T10:33:01Z</time>
      </trkpt>
      <trkpt lat="43.49627" lon="6.9362">
        <ele>64.009971618652</ele>
        <time>2012-01-15T10:33:10Z</time>
      </trkpt>
      <trkpt lat="43.49631" lon="6.93601">
        <ele>62.436298370361</ele>
        <time>2012-01-15T10:33:18Z</time>
      </trkpt>
      <trkpt lat="43.49635" lon="6.93582">
        <ele>60.986621856689</ele>
        <time>2012-01-15T10:33:26Z</time>
      </trkpt>
      <trkpt lat="43.49641" lon="6.9356">
        <ele>60</ele>
        <time>2012-01-15T10:33:36Z</time>
      </trkpt>
      <trkpt lat="43.49648" lon="6.93543">
        <ele>60</ele>
        <time>2012-01-15T10:33:44Z</time>
      </trkpt>
      <trkpt lat="43.49657" lon="6.93522">
        <ele>60.144474029541</ele>
        <time>2012-01-15T10:33:54Z</time>
      </trkpt>
      <trkpt lat="43.49665" lon="6.93504">
        <ele>60.075973510742</ele>
        <time>2012-01-15T10:34:03Z</time>
      </trkpt>
      <trkpt lat="43.49668" lon="6.93486">
        <ele>60</ele>
        <time>2012-01-15T10:34:11Z</time>
      </trkpt>
      <trkpt lat="43.49667" lon="6.93471">
        <ele>60</ele>
        <time>2012-01-15T10:34:18Z</time>
      </trkpt>
      <trkpt lat="43.49663" lon="6.93451">
        <ele>60.27978515625</ele>
        <time>2012-01-15T10:34:27Z</time>
      </trkpt>
      <trkpt lat="43.49654" lon="6.9343">
        <ele>61.146228790283</ele>
        <time>2012-01-15T10:34:37Z</time>
      </trkpt>
      <trkpt lat="43.49648" lon="6.93418">
        <ele>62.041000366211</ele>
        <time>2012-01-15T10:34:44Z</time>
      </trkpt>
      <trkpt lat="43.4964" lon="6.93405">
        <ele>62.932800292969</ele>
        <time>2012-01-15T10:34:52Z</time>
      </trkpt>
      <trkpt lat="43.49632" lon="6.93396">
        <ele>65.591400146484</ele>
        <time>2012-01-15T10:35:00Z</time>
      </trkpt>
      <trkpt lat="43.4962" lon="6.93385">
        <ele>69.590667724609</ele>
        <time>2012-01-15T10:35:09Z</time>
      </trkpt>
      <trkpt lat="43.49609" lon="6.9338">
        <ele>74.384750366211</ele>
        <time>2012-01-15T10:35:17Z</time>
      </trkpt>
      <trkpt lat="43.49607" lon="6.93379">
        <ele>75.564064025879</ele>
        <time>2012-01-15T10:35:19Z</time>
      </trkpt>
      <trkpt lat="43.49601" lon="6.93377">
        <ele>78.52522277832</ele>
        <time>2012-01-15T10:35:23Z</time>
      </trkpt>
      <trkpt lat="43.49588" lon="6.93373">
        <ele>85.024322509766</ele>
        <time>2012-01-15T10:35:31Z</time>
      </trkpt>
      <trkpt lat="43.49571" lon="6.93361">
        <ele>92.042320251465</ele>
        <time>2012-01-15T10:35:43Z</time>
      </trkpt>
      <trkpt lat="43.49572" lon="6.93351">
        <ele>92.360336303711</ele>
        <time>2012-01-15T10:35:47Z</time>
      </trkpt>
      <trkpt lat="43.49572" lon="6.93349">
        <ele>92.353652954102</ele>
        <time>2012-01-15T10:35:48Z</time>
      </trkpt>
      <trkpt lat="43.49581" lon="6.93336">
        <ele>90.415069580078</ele>
        <time>2012-01-15T10:35:55Z</time>
      </trkpt>
      <trkpt lat="43.49595" lon="6.93327">
        <ele>84.039459228516</ele>
        <time>2012-01-15T10:36:03Z</time>
      </trkpt>
      <trkpt lat="43.49611" lon="6.93318">
        <ele>76.215133666992</ele>
        <time>2012-01-15T10:36:11Z</time>
      </trkpt>
      <trkpt lat="43.4962" lon="6.93302">
        <ele>71.905799865723</ele>
        <time>2012-01-15T10:36:19Z</time>
      </trkpt>
      <trkpt lat="43.49622" lon="6.93284">
        <ele>71.225006103516</ele>
        <time>2012-01-15T10:36:26Z</time>
      </trkpt>
      <trkpt lat="43.49623" lon="6.93266">
        <ele>72.112701416016</ele>
        <time>2012-01-15T10:36:33Z</time>
      </trkpt>
      <trkpt lat="43.49616" lon="6.93247">
        <ele>76.577682495117</ele>
        <time>2012-01-15T10:36:41Z</time>
      </trkpt>
      <trkpt lat="43.49607" lon="6.93237">
        <ele>82.063636779785</ele>
        <time>2012-01-15T10:36:47Z</time>
      </trkpt>
      <trkpt lat="43.49591" lon="6.93222">
        <ele>92.501113891602</ele>
        <time>2012-01-15T10:36:55Z</time>
      </trkpt>
      <trkpt lat="43.49577" lon="6.93208">
        <ele>99.152244567871</ele>
        <time>2012-01-15T10:37:01Z</time>
      </trkpt>
      <trkpt lat="43.49577" lon="6.932">
        <ele>99.553131103516</ele>
        <time>2012-01-15T10:37:03Z</time>
      </trkpt>
      <trkpt lat="43.49578" lon="6.93197">
        <ele>99.295021057129</ele>
        <time>2012-01-15T10:37:04Z</time>
      </trkpt>
      <trkpt lat="43.49583" lon="6.93188">
        <ele>98.683067321777</ele>
        <time>2012-01-15T10:37:07Z</time>
      </trkpt>
      <trkpt lat="43.49589" lon="6.93178">
        <ele>95.951545715332</ele>
        <time>2012-01-15T10:37:11Z</time>
      </trkpt>
      <trkpt lat="43.49606" lon="6.93162">
        <ele>87.264274597168</ele>
        <time>2012-01-15T10:37:20Z</time>
      </trkpt>
      <trkpt lat="43.49622" lon="6.93144">
        <ele>82.543991088867</ele>
        <time>2012-01-15T10:37:29Z</time>
      </trkpt>
      <trkpt lat="43.4963" lon="6.93124">
        <ele>81.653884887695</ele>
        <time>2012-01-15T10:37:37Z</time>
      </trkpt>
      <trkpt lat="43.49635" lon="6.93104">
        <ele>81.969696044922</ele>
        <time>2012-01-15T10:37:45Z</time>
      </trkpt>
      <trkpt lat="43.49636" lon="6.93081">
        <ele>83.338073730469</ele>
        <time>2012-01-15T10:37:53Z</time>
      </trkpt>
      <trkpt lat="43.49632" lon="6.93057">
        <ele>86.589340209961</ele>
        <time>2012-01-15T10:38:02Z</time>
      </trkpt>
      <trkpt lat="43.4962" lon="6.93045">
        <ele>91.414436340332</ele>
        <time>2012-01-15T10:38:09Z</time>
      </trkpt>
      <trkpt lat="43.49605" lon="6.93037">
        <ele>96.951629638672</ele>
        <time>2012-01-15T10:38:16Z</time>
      </trkpt>
      <trkpt lat="43.49592" lon="6.93021">
        <ele>101.84085083008</ele>
        <time>2012-01-15T10:38:24Z</time>
      </trkpt>
      <trkpt lat="43.49592" lon="6.93002">
        <ele>101.5814743042</ele>
        <time>2012-01-15T10:38:30Z</time>
      </trkpt>
      <trkpt lat="43.49595" lon="6.92986">
        <ele>100.56494140625</ele>
        <time>2012-01-15T10:38:36Z</time>
      </trkpt>
      <trkpt lat="43.49586" lon="6.92961">
        <ele>101.79964447022</ele>
        <time>2012-01-15T10:38:45Z</time>
      </trkpt>
      <trkpt lat="43.49575" lon="6.92936">
        <ele>104.50944519043</ele>
        <time>2012-01-15T10:38:55Z</time>
      </trkpt>
      <trkpt lat="43.49568" lon="6.92915">
        <ele>107.16835021973</ele>
        <time>2012-01-15T10:39:04Z</time>
      </trkpt>
      <trkpt lat="43.49554" lon="6.92896">
        <ele>112.0552444458</ele>
        <time>2012-01-15T10:39:14Z</time>
      </trkpt>
      <trkpt lat="43.49543" lon="6.9288">
        <ele>115.31828308106</ele>
        <time>2012-01-15T10:39:22Z</time>
      </trkpt>
      <trkpt lat="43.4953" lon="6.92864">
        <ele>120.20058441162</ele>
        <time>2012-01-15T10:39:31Z</time>
      </trkpt>
      <trkpt lat="43.49515" lon="6.92849">
        <ele>126.87036895752</ele>
        <time>2012-01-15T10:39:40Z</time>
      </trkpt>
      <trkpt lat="43.49504" lon="6.92832">
        <ele>132.58575439453</ele>
        <time>2012-01-15T10:39:48Z</time>
      </trkpt>
      <trkpt lat="43.49503" lon="6.92815">
        <ele>133.61572265625</ele>
        <time>2012-01-15T10:39:54Z</time>
      </trkpt>
      <trkpt lat="43.49497" lon="6.92794">
        <ele>135.78239440918</ele>
        <time>2012-01-15T10:40:02Z</time>
      </trkpt>
      <trkpt lat="43.49491" lon="6.92784">
        <ele>136.80497741699</ele>
        <time>2012-01-15T10:40:07Z</time>
      </trkpt>
      <trkpt lat="43.4949" lon="6.92783">
        <ele>136.97082519531</ele>
        <time>2012-01-15T10:40:12Z</time>
      </trkpt>
      <trkpt lat="43.49488" lon="6.92784">
        <ele>137.2008972168</ele>
        <time>2012-01-15T10:40:30Z</time>
      </trkpt>
      <trkpt lat="43.49482" lon="6.92797">
        <ele>137.65895080566</ele>
        <time>2012-01-15T10:40:36Z</time>
      </trkpt>
      <trkpt lat="43.49476" lon="6.92812">
        <ele>138.47607421875</ele>
        <time>2012-01-15T10:40:43Z</time>
      </trkpt>
      <trkpt lat="43.49464" lon="6.92831">
        <ele>133.13903808594</ele>
        <time>2012-01-15T10:40:52Z</time>
      </trkpt>
      <trkpt lat="43.49449" lon="6.92846">
        <ele>124.47500610352</ele>
        <time>2012-01-15T10:41:02Z</time>
      </trkpt>
      <trkpt lat="43.49436" lon="6.92843">
        <ele>117.39566040039</ele>
        <time>2012-01-15T10:41:09Z</time>
      </trkpt>
      <trkpt lat="43.49422" lon="6.92846">
        <ele>111.39478302002</ele>
        <time>2012-01-15T10:41:17Z</time>
      </trkpt>
      <trkpt lat="43.49409" lon="6.92857">
        <ele>110.87453460693</ele>
        <time>2012-01-15T10:41:25Z</time>
      </trkpt>
      <trkpt lat="43.494" lon="6.92878">
        <ele>114.55706787109</ele>
        <time>2012-01-15T10:41:34Z</time>
      </trkpt>
      <trkpt lat="43.49401" lon="6.929">
        <ele>119.74449157715</ele>
        <time>2012-01-15T10:41:42Z</time>
      </trkpt>
      <trkpt lat="43.49406" lon="6.9292">
        <ele>124.44117736816</ele>
        <time>2012-01-15T10:41:50Z</time>
      </trkpt>
      <trkpt lat="43.49412" lon="6.92941">
        <ele>130.27079772949</ele>
        <time>2012-01-15T10:41:59Z</time>
      </trkpt>
      <trkpt lat="43.49408" lon="6.92963">
        <ele>134.20451354981</ele>
        <time>2012-01-15T10:42:07Z</time>
      </trkpt>
      <trkpt lat="43.49402" lon="6.92983">
        <ele>136.81747436523</ele>
        <time>2012-01-15T10:42:15Z</time>
      </trkpt>
      <trkpt lat="43.49405" lon="6.93">
        <ele>139.37030029297</ele>
        <time>2012-01-15T10:42:22Z</time>
      </trkpt>
      <trkpt lat="43.49406" lon="6.93023">
        <ele>142.60310363769</ele>
        <time>2012-01-15T10:42:31Z</time>
      </trkpt>
      <trkpt lat="43.49405" lon="6.93045">
        <ele>145.03179931641</ele>
        <time>2012-01-15T10:42:39Z</time>
      </trkpt>
      <trkpt lat="43.49397" lon="6.93069">
        <ele>146.81956481934</ele>
        <time>2012-01-15T10:42:49Z</time>
      </trkpt>
      <trkpt lat="43.4939" lon="6.93082">
        <ele>147.91004943848</ele>
        <time>2012-01-15T10:42:56Z</time>
      </trkpt>
      <trkpt lat="43.49382" lon="6.93096">
        <ele>147.89485168457</ele>
        <time>2012-01-15T10:43:03Z</time>
      </trkpt>
      <trkpt lat="43.4937" lon="6.93114">
        <ele>148.00885009766</ele>
        <time>2012-01-15T10:43:13Z</time>
      </trkpt>
      <trkpt lat="43.49361" lon="6.9313">
        <ele>148.77102661133</ele>
        <time>2012-01-15T10:43:21Z</time>
      </trkpt>
      <trkpt lat="43.49356" lon="6.93152">
        <ele>150.35906982422</ele>
        <time>2012-01-15T10:43:30Z</time>
      </trkpt>
      <trkpt lat="43.49356" lon="6.93173">
        <ele>152.78778076172</ele>
        <time>2012-01-15T10:43:38Z</time>
      </trkpt>
      <trkpt lat="43.49361" lon="6.93192">
        <ele>156.75497436523</ele>
        <time>2012-01-15T10:43:46Z</time>
      </trkpt>
      <trkpt lat="43.4937" lon="6.93202">
        <ele>159.10699462891</ele>
        <time>2012-01-15T10:43:53Z</time>
      </trkpt>
      <trkpt lat="43.49371" lon="6.93194">
        <ele>158.31365966797</ele>
        <time>2012-01-15T10:43:58Z</time>
      </trkpt>
      <trkpt lat="43.49369" lon="6.93189">
        <ele>157.46221923828</ele>
        <time>2012-01-15T10:44:00Z</time>
      </trkpt>
      <trkpt lat="43.49368" lon="6.93176">
        <ele>155.43661499023</ele>
        <time>2012-01-15T10:44:05Z</time>
      </trkpt>
      <trkpt lat="43.49372" lon="6.93159">
        <ele>153.85552978516</ele>
        <time>2012-01-15T10:44:12Z</time>
      </trkpt>
      <trkpt lat="43.49381" lon="6.93145">
        <ele>154.11393737793</ele>
        <time>2012-01-15T10:44:19Z</time>
      </trkpt>
      <trkpt lat="43.49393" lon="6.93135">
        <ele>154.52549743652</ele>
        <time>2012-01-15T10:44:27Z</time>
      </trkpt>
      <trkpt lat="43.49407" lon="6.93127">
        <ele>153.62316894531</ele>
        <time>2012-01-15T10:44:35Z</time>
      </trkpt>
      <trkpt lat="43.49421" lon="6.9312">
        <ele>152.3663482666</ele>
        <time>2012-01-15T10:44:43Z</time>
      </trkpt>
      <trkpt lat="43.49435" lon="6.93116">
        <ele>150.39454650879</ele>
        <time>2012-01-15T10:44:50Z</time>
      </trkpt>
      <trkpt lat="43.49441" lon="6.93128">
        <ele>150.70588684082</ele>
        <time>2012-01-15T10:44:55Z</time>
      </trkpt>
      <trkpt lat="43.49442" lon="6.93155">
        <ele>151.98115539551</ele>
        <time>2012-01-15T10:45:00Z</time>
      </trkpt>
      <trkpt lat="43.49436" lon="6.93182">
        <ele>154.79412841797</ele>
        <time>2012-01-15T10:45:05Z</time>
      </trkpt>
      <trkpt lat="43.49413" lon="6.9322">
        <ele>162.10667419434</ele>
        <time>2012-01-15T10:45:13Z</time>
      </trkpt>
      <trkpt lat="43.49403" lon="6.93241">
        <ele>164.98309326172</ele>
        <time>2012-01-15T10:45:18Z</time>
      </trkpt>
      <trkpt lat="43.494" lon="6.93258">
        <ele>167.23452758789</ele>
        <time>2012-01-15T10:45:24Z</time>
      </trkpt>
      <trkpt lat="43.49399" lon="6.93278">
        <ele>169.89114379883</ele>
        <time>2012-01-15T10:45:32Z</time>
      </trkpt>
      <trkpt lat="43.49399" lon="6.93304">
        <ele>172.25041198731</ele>
        <time>2012-01-15T10:45:42Z</time>
      </trkpt>
      <trkpt lat="43.49399" lon="6.93321">
        <ele>171.41081237793</ele>
        <time>2012-01-15T10:45:49Z</time>
      </trkpt>
      <trkpt lat="43.49399" lon="6.93323">
        <ele>171.17735290527</ele>
        <time>2012-01-15T10:45:50Z</time>
      </trkpt>
      <trkpt lat="43.49399" lon="6.93332">
        <ele>170.62460327148</ele>
        <time>2012-01-15T10:45:54Z</time>
      </trkpt>
      <trkpt lat="43.49391" lon="6.93331">
        <ele>172.59870910644</ele>
        <time>2012-01-15T10:45:59Z</time>
      </trkpt>
      <trkpt lat="43.49385" lon="6.93321">
        <ele>174.65686035156</ele>
        <time>2012-01-15T10:46:04Z</time>
      </trkpt>
      <trkpt lat="43.49374" lon="6.93311">
        <ele>177.48616027832</ele>
        <time>2012-01-15T10:46:11Z</time>
      </trkpt>
      <trkpt lat="43.49356" lon="6.93311">
        <ele>178.08261108398</ele>
        <time>2012-01-15T10:46:20Z</time>
      </trkpt>
      <trkpt lat="43.49344" lon="6.93315">
        <ele>173.76644897461</ele>
        <time>2012-01-15T10:46:27Z</time>
      </trkpt>
      <trkpt lat="43.49337" lon="6.9333">
        <ele>174.84030151367</ele>
        <time>2012-01-15T10:46:34Z</time>
      </trkpt>
      <trkpt lat="43.49339" lon="6.9335">
        <ele>178.42655944824</ele>
        <time>2012-01-15T10:46:42Z</time>
      </trkpt>
      <trkpt lat="43.49344" lon="6.93362">
        <ele>180</ele>
        <time>2012-01-15T10:46:48Z</time>
      </trkpt>
      <trkpt lat="43.4935" lon="6.93372">
        <ele>180</ele>
        <time>2012-01-15T10:46:54Z</time>
      </trkpt>
      <trkpt lat="43.4935" lon="6.93382">
        <ele>180</ele>
        <time>2012-01-15T10:46:59Z</time>
      </trkpt>
      <trkpt lat="43.49349" lon="6.93383">
        <ele>180</ele>
        <time>2012-01-15T10:47:00Z</time>
      </trkpt>
      <trkpt lat="43.49349" lon="6.93384">
        <ele>180</ele>
        <time>2012-01-15T10:47:02Z</time>
      </trkpt>
      <trkpt lat="43.49359" lon="6.93244">
        <ele>164.68051147461</ele>
        <time>2012-01-15T11:08:15Z</time>
      </trkpt>
      <trkpt lat="43.49355" lon="6.93244">
        <ele>163.64265441894</ele>
        <time>2012-01-15T11:08:16Z</time>
      </trkpt>
      <trkpt lat="43.49335" lon="6.93249">
        <ele>158.59199523926</ele>
        <time>2012-01-15T11:08:21Z</time>
      </trkpt>
      <trkpt lat="43.49317" lon="6.93261">
        <ele>155.71406555176</ele>
        <time>2012-01-15T11:08:26Z</time>
      </trkpt>
      <trkpt lat="43.493" lon="6.93272">
        <ele>153.14465332031</ele>
        <time>2012-01-15T11:08:31Z</time>
      </trkpt>
      <trkpt lat="43.49299" lon="6.93265">
        <ele>151.48812866211</ele>
        <time>2012-01-15T11:08:34Z</time>
      </trkpt>
      <trkpt lat="43.49297" lon="6.93256">
        <ele>148.82737731934</ele>
        <time>2012-01-15T11:08:37Z</time>
      </trkpt>
      <trkpt lat="43.49288" lon="6.9326">
        <ele>146.38119506836</ele>
        <time>2012-01-15T11:08:40Z</time>
      </trkpt>
      <trkpt lat="43.49276" lon="6.93268">
        <ele>142.95223999023</ele>
        <time>2012-01-15T11:08:44Z</time>
      </trkpt>
      <trkpt lat="43.49265" lon="6.93273">
        <ele>133.65060424805</ele>
        <time>2012-01-15T11:08:48Z</time>
      </trkpt>
      <trkpt lat="43.49262" lon="6.93282">
        <ele>131.38514709473</ele>
        <time>2012-01-15T11:08:52Z</time>
      </trkpt>
      <trkpt lat="43.49259" lon="6.93279">
        <ele>128.29789733887</ele>
        <time>2012-01-15T11:08:55Z</time>
      </trkpt>
      <trkpt lat="43.49261" lon="6.93271">
        <ele>129.41950988769</ele>
        <time>2012-01-15T11:08:58Z</time>
      </trkpt>
      <trkpt lat="43.49261" lon="6.93268">
        <ele>128.66157531738</ele>
        <time>2012-01-15T11:08:59Z</time>
      </trkpt>
      <trkpt lat="43.49254" lon="6.93268">
        <ele>122.77758789062</ele>
        <time>2012-01-15T11:09:02Z</time>
      </trkpt>
      <trkpt lat="43.49248" lon="6.93273">
        <ele>118.47938537598</ele>
        <time>2012-01-15T11:09:06Z</time>
      </trkpt>
      <trkpt lat="43.49247" lon="6.93271">
        <ele>117.79511260986</ele>
        <time>2012-01-15T11:09:08Z</time>
      </trkpt>
      <trkpt lat="43.49247" lon="6.93269">
        <ele>117.57283020019</ele>
        <time>2012-01-15T11:09:09Z</time>
      </trkpt>
      <trkpt lat="43.49246" lon="6.93266">
        <ele>116.99797058106</ele>
        <time>2012-01-15T11:09:10Z</time>
      </trkpt>
      <trkpt lat="43.49242" lon="6.93262">
        <ele>114.85977935791</ele>
        <time>2012-01-15T11:09:14Z</time>
      </trkpt>
      <trkpt lat="43.49234" lon="6.93263">
        <ele>111.62855529785</ele>
        <time>2012-01-15T11:09:18Z</time>
      </trkpt>
      <trkpt lat="43.49232" lon="6.93265">
        <ele>111.1445388794</ele>
        <time>2012-01-15T11:09:19Z</time>
      </trkpt>
      <trkpt lat="43.49228" lon="6.93257">
        <ele>108.97945404053</ele>
        <time>2012-01-15T11:09:22Z</time>
      </trkpt>
      <trkpt lat="43.49221" lon="6.93251">
        <ele>105.81411743164</ele>
        <time>2012-01-15T11:09:26Z</time>
      </trkpt>
      <trkpt lat="43.49212" lon="6.93237">
        <ele>102.18929290772</ele>
        <time>2012-01-15T11:09:31Z</time>
      </trkpt>
      <trkpt lat="43.49208" lon="6.9323">
        <ele>100.31304168701</ele>
        <time>2012-01-15T11:09:35Z</time>
      </trkpt>
      <trkpt lat="43.49206" lon="6.93227">
        <ele>99.42308807373</ele>
        <time>2012-01-15T11:09:39Z</time>
      </trkpt>
      <trkpt lat="43.49202" lon="6.93227">
        <ele>98.259254455566</ele>
        <time>2012-01-15T11:09:43Z</time>
      </trkpt>
      <trkpt lat="43.492" lon="6.93224">
        <ele>97.196006774902</ele>
        <time>2012-01-15T11:09:46Z</time>
      </trkpt>
      <trkpt lat="43.49199" lon="6.93219">
        <ele>96.510360717773</ele>
        <time>2012-01-15T11:09:49Z</time>
      </trkpt>
      <trkpt lat="43.492" lon="6.93215">
        <ele>96.510360717773</ele>
        <time>2012-01-15T11:09:51Z</time>
      </trkpt>
      <trkpt lat="43.49199" lon="6.9321">
        <ele>95.731018066406</ele>
        <time>2012-01-15T11:09:54Z</time>
      </trkpt>
      <trkpt lat="43.49199" lon="6.9321">
        <ele>95.744750976562</ele>
        <time>2012-01-15T11:09:55Z</time>
      </trkpt>
      <trkpt lat="43.49199" lon="6.93212">
        <ele>95.844314575195</ele>
        <time>2012-01-15T11:09:58Z</time>
      </trkpt>
      <trkpt lat="43.49195" lon="6.93207">
        <ele>94.138000488281</ele>
        <time>2012-01-15T11:10:04Z</time>
      </trkpt>
      <trkpt lat="43.49193" lon="6.93207">
        <ele>93.454490661621</ele>
        <time>2012-01-15T11:10:05Z</time>
      </trkpt>
      <trkpt lat="43.49187" lon="6.93208">
        <ele>91.32315826416</ele>
        <time>2012-01-15T11:10:08Z</time>
      </trkpt>
      <trkpt lat="43.49175" lon="6.93218">
        <ele>87.066703796387</ele>
        <time>2012-01-15T11:10:12Z</time>
      </trkpt>
      <trkpt lat="43.49163" lon="6.9322">
        <ele>83.576171875</ele>
        <time>2012-01-15T11:10:16Z</time>
      </trkpt>
      <trkpt lat="43.4916" lon="6.93209">
        <ele>82.819145202637</ele>
        <time>2012-01-15T11:10:19Z</time>
      </trkpt>
      <trkpt lat="43.49153" lon="6.93209">
        <ele>82.070701599121</ele>
        <time>2012-01-15T11:10:22Z</time>
      </trkpt>
      <trkpt lat="43.49149" lon="6.93202">
        <ele>81.360023498535</ele>
        <time>2012-01-15T11:10:25Z</time>
      </trkpt>
      <trkpt lat="43.49146" lon="6.93198">
        <ele>80.872505187988</ele>
        <time>2012-01-15T11:10:26Z</time>
      </trkpt>
      <trkpt lat="43.49143" lon="6.93189">
        <ele>80.402809143066</ele>
        <time>2012-01-15T11:10:28Z</time>
      </trkpt>
      <trkpt lat="43.49141" lon="6.93181">
        <ele>80.123428344727</ele>
        <time>2012-01-15T11:10:30Z</time>
      </trkpt>
      <trkpt lat="43.49134" lon="6.93178">
        <ele>78.359580993652</ele>
        <time>2012-01-15T11:10:32Z</time>
      </trkpt>
      <trkpt lat="43.49117" lon="6.93168">
        <ele>72.022064208984</ele>
        <time>2012-01-15T11:10:37Z</time>
      </trkpt>
      <trkpt lat="43.49101" lon="6.93168">
        <ele>68.640800476074</ele>
        <time>2012-01-15T11:10:41Z</time>
      </trkpt>
      <trkpt lat="43.49087" lon="6.93169">
        <ele>66.693077087402</ele>
        <time>2012-01-15T11:10:44Z</time>
      </trkpt>
      <trkpt lat="43.49083" lon="6.93166">
        <ele>65.900886535645</ele>
        <time>2012-01-15T11:10:45Z</time>
      </trkpt>
      <trkpt lat="43.49079" lon="6.93156">
        <ele>64.374809265137</ele>
        <time>2012-01-15T11:10:48Z</time>
      </trkpt>
      <trkpt lat="43.49066" lon="6.93144">
        <ele>61.611339569092</ele>
        <time>2012-01-15T11:10:51Z</time>
      </trkpt>
      <trkpt lat="43.49063" lon="6.93141">
        <ele>61.071907043457</ele>
        <time>2012-01-15T11:10:52Z</time>
      </trkpt>
      <trkpt lat="43.4906" lon="6.93138">
        <ele>60.640605926514</ele>
        <time>2012-01-15T11:10:53Z</time>
      </trkpt>
      <trkpt lat="43.49057" lon="6.93138">
        <ele>60.259822845459</ele>
        <time>2012-01-15T11:10:54Z</time>
      </trkpt>
      <trkpt lat="43.4905" lon="6.93146">
        <ele>57.814094543457</ele>
        <time>2012-01-15T11:10:57Z</time>
      </trkpt>
      <trkpt lat="43.49038" lon="6.93154">
        <ele>53.562419891357</ele>
        <time>2012-01-15T11:11:01Z</time>
      </trkpt>
      <trkpt lat="43.49035" lon="6.93153">
        <ele>52.587162017822</ele>
        <time>2012-01-15T11:11:02Z</time>
      </trkpt>
      <trkpt lat="43.49028" lon="6.93155">
        <ele>50.34582901001</ele>
        <time>2012-01-15T11:11:05Z</time>
      </trkpt>
      <trkpt lat="43.49024" lon="6.9316">
        <ele>49.907619476318</ele>
        <time>2012-01-15T11:11:08Z</time>
      </trkpt>
      <trkpt lat="43.4902" lon="6.93167">
        <ele>49.649108886719</ele>
        <time>2012-01-15T11:11:11Z</time>
      </trkpt>
      <trkpt lat="43.4901" lon="6.93166">
        <ele>47.87561416626</ele>
        <time>2012-01-15T11:11:15Z</time>
      </trkpt>
      <trkpt lat="43.49009" lon="6.93168">
        <ele>47.676719665527</ele>
        <time>2012-01-15T11:11:16Z</time>
      </trkpt>
      <trkpt lat="43.49007" lon="6.93177">
        <ele>48.339332580566</ele>
        <time>2012-01-15T11:11:18Z</time>
      </trkpt>
      <trkpt lat="43.49015" lon="6.93188">
        <ele>50.996650695801</ele>
        <time>2012-01-15T11:11:21Z</time>
      </trkpt>
      <trkpt lat="43.4903" lon="6.93196">
        <ele>54.501029968262</ele>
        <time>2012-01-15T11:11:25Z</time>
      </trkpt>
      <trkpt lat="43.49042" lon="6.93201">
        <ele>57.221813201904</ele>
        <time>2012-01-15T11:11:29Z</time>
      </trkpt>
      <trkpt lat="43.49048" lon="6.93219">
        <ele>58.576290130615</ele>
        <time>2012-01-15T11:11:32Z</time>
      </trkpt>
      <trkpt lat="43.49049" lon="6.93223">
        <ele>58.891109466553</ele>
        <time>2012-01-15T11:11:35Z</time>
      </trkpt>
      <trkpt lat="43.49052" lon="6.93234">
        <ele>59.358646392822</ele>
        <time>2012-01-15T11:11:39Z</time>
      </trkpt>
      <trkpt lat="43.4905" lon="6.93238">
        <ele>59.137809753418</ele>
        <time>2012-01-15T11:11:40Z</time>
      </trkpt>
      <trkpt lat="43.49047" lon="6.93235">
        <ele>58.621047973633</ele>
        <time>2012-01-15T11:11:42Z</time>
      </trkpt>
      <trkpt lat="43.49036" lon="6.93221">
        <ele>56.451251983643</ele>
        <time>2012-01-15T11:11:46Z</time>
      </trkpt>
      <trkpt lat="43.4903" lon="6.93217">
        <ele>55.131381988525</ele>
        <time>2012-01-15T11:11:48Z</time>
      </trkpt>
      <trkpt lat="43.49025" lon="6.93217">
        <ele>54.387496948242</ele>
        <time>2012-01-15T11:11:49Z</time>
      </trkpt>
      <trkpt lat="43.49009" lon="6.93219">
        <ele>51.476119995117</ele>
        <time>2012-01-15T11:11:54Z</time>
      </trkpt>
      <trkpt lat="43.48995" lon="6.93227">
        <ele>49.164157867432</ele>
        <time>2012-01-15T11:11:59Z</time>
      </trkpt>
      <trkpt lat="43.48995" lon="6.93232">
        <ele>49.62707901001</ele>
        <time>2012-01-15T11:12:02Z</time>
      </trkpt>
      <trkpt lat="43.48999" lon="6.9324">
        <ele>51.012866973877</ele>
        <time>2012-01-15T11:12:07Z</time>
      </trkpt>
      <trkpt lat="43.48988" lon="6.93246">
        <ele>49.379013061523</ele>
        <time>2012-01-15T11:12:11Z</time>
      </trkpt>
      <trkpt lat="43.4898" lon="6.93239">
        <ele>47.059520721436</ele>
        <time>2012-01-15T11:12:14Z</time>
      </trkpt>
      <trkpt lat="43.48977" lon="6.93236">
        <ele>45.883460998535</ele>
        <time>2012-01-15T11:12:15Z</time>
      </trkpt>
      <trkpt lat="43.48966" lon="6.93223">
        <ele>42.39644241333</ele>
        <time>2012-01-15T11:12:19Z</time>
      </trkpt>
      <trkpt lat="43.48953" lon="6.9322">
        <ele>40.861923217773</ele>
        <time>2012-01-15T11:12:23Z</time>
      </trkpt>
      <trkpt lat="43.4894" lon="6.93221">
        <ele>40</ele>
        <time>2012-01-15T11:12:27Z</time>
      </trkpt>
      <trkpt lat="43.48932" lon="6.93214">
        <ele>40</ele>
        <time>2012-01-15T11:12:30Z</time>
      </trkpt>
      <trkpt lat="43.48919" lon="6.93214">
        <ele>40</ele>
        <time>2012-01-15T11:12:34Z</time>
      </trkpt>
      <trkpt lat="43.48911" lon="6.9322">
        <ele>40</ele>
        <time>2012-01-15T11:12:38Z</time>
      </trkpt>
      <trkpt lat="43.48897" lon="6.93224">
        <ele>40</ele>
        <time>2012-01-15T11:12:43Z</time>
      </trkpt>
      <trkpt lat="43.48884" lon="6.93221">
        <ele>40</ele>
        <time>2012-01-15T11:12:46Z</time>
      </trkpt>
      <trkpt lat="43.4888" lon="6.93219">
        <ele>40</ele>
        <time>2012-01-15T11:12:49Z</time>
      </trkpt>
      <trkpt lat="43.48879" lon="6.9322">
        <ele>40</ele>
        <time>2012-01-15T11:12:57Z</time>
      </trkpt>
      <trkpt lat="43.48877" lon="6.93222">
        <ele>40</ele>
        <time>2012-01-15T11:13:41Z</time>
      </trkpt>
      <trkpt lat="43.48876" lon="6.9322">
        <ele>40</ele>
        <time>2012-01-15T11:13:45Z</time>
      </trkpt>
      <trkpt lat="43.48875" lon="6.93218">
        <ele>40</ele>
        <time>2012-01-15T11:13:46Z</time>
      </trkpt>
      <trkpt lat="43.48875" lon="6.93217">
        <ele>40</ele>
        <time>2012-01-15T11:13:48Z</time>
      </trkpt>
      <trkpt lat="43.48875" lon="6.93216">
        <ele>40</ele>
        <time>2012-01-15T11:13:49Z</time>
      </trkpt>
      <trkpt lat="43.48878" lon="6.93212">
        <ele>40</ele>
        <time>2012-01-15T11:13:55Z</time>
      </trkpt>
      <trkpt lat="43.48882" lon="6.9321">
        <ele>40</ele>
        <time>2012-01-15T11:14:07Z</time>
      </trkpt>
      <trkpt lat="43.48883" lon="6.9321">
        <ele>40</ele>
        <time>2012-01-15T11:14:08Z</time>
      </trkpt>
      <trkpt lat="43.48885" lon="6.9321">
        <ele>40</ele>
        <time>2012-01-15T11:14:13Z</time>
      </trkpt>
      <trkpt lat="43.48883" lon="6.93204">
        <ele>40</ele>
        <time>2012-01-15T11:14:19Z</time>
      </trkpt>
      <trkpt lat="43.48883" lon="6.93201">
        <ele>40</ele>
        <time>2012-01-15T11:14:25Z</time>
      </trkpt>
      <trkpt lat="43.48886" lon="6.932">
        <ele>40</ele>
        <time>2012-01-15T11:14:35Z</time>
      </trkpt>
      <trkpt lat="43.48887" lon="6.93192">
        <ele>40</ele>
        <time>2012-01-15T11:14:47Z</time>
      </trkpt>
      <trkpt lat="43.48887" lon="6.93184">
        <ele>40</ele>
        <time>2012-01-15T11:14:55Z</time>
      </trkpt>
      <trkpt lat="43.48891" lon="6.93181">
        <ele>40</ele>
        <time>2012-01-15T11:15:01Z</time>
      </trkpt>
      <trkpt lat="43.48895" lon="6.93181">
        <ele>40</ele>
        <time>2012-01-15T11:15:07Z</time>
      </trkpt>
      <trkpt lat="43.48897" lon="6.93183">
        <ele>40</ele>
        <time>2012-01-15T11:15:12Z</time>
      </trkpt>
      <trkpt lat="43.48899" lon="6.93182">
        <ele>40</ele>
        <time>2012-01-15T11:15:13Z</time>
      </trkpt>
      <trkpt lat="43.48905" lon="6.93184">
        <ele>40</ele>
        <time>2012-01-15T11:15:17Z</time>
      </trkpt>
      <trkpt lat="43.48913" lon="6.93189">
        <ele>40</ele>
        <time>2012-01-15T11:15:22Z</time>
      </trkpt>
      <trkpt lat="43.4892" lon="6.9319">
        <ele>40</ele>
        <time>2012-01-15T11:15:25Z</time>
      </trkpt>
      <trkpt lat="43.48925" lon="6.9319">
        <ele>40</ele>
        <time>2012-01-15T11:15:27Z</time>
      </trkpt>
      <trkpt lat="43.48937" lon="6.93187">
        <ele>40</ele>
        <time>2012-01-15T11:15:33Z</time>
      </trkpt>
      <trkpt lat="43.48939" lon="6.93188">
        <ele>40</ele>
        <time>2012-01-15T11:15:35Z</time>
      </trkpt>
      <trkpt lat="43.4894" lon="6.93189">
        <ele>40</ele>
        <time>2012-01-15T11:15:39Z</time>
      </trkpt>
      <trkpt lat="43.48943" lon="6.93194">
        <ele>40</ele>
        <time>2012-01-15T11:15:46Z</time>
      </trkpt>
      <trkpt lat="43.48948" lon="6.93198">
        <ele>40.171546936035</ele>
        <time>2012-01-15T11:15:52Z</time>
      </trkpt>
      <trkpt lat="43.48952" lon="6.93198">
        <ele>40.320281982422</ele>
        <time>2012-01-15T11:15:55Z</time>
      </trkpt>
      <trkpt lat="43.48954" lon="6.93194">
        <ele>40.358093261719</ele>
        <time>2012-01-15T11:15:58Z</time>
      </trkpt>
      <trkpt lat="43.48961" lon="6.93183">
        <ele>40.591552734375</ele>
        <time>2012-01-15T11:16:09Z</time>
      </trkpt>
      <trkpt lat="43.48962" lon="6.93181">
        <ele>40.632751464844</ele>
        <time>2012-01-15T11:16:16Z</time>
      </trkpt>
      <trkpt lat="43.48962" lon="6.9318">
        <ele>40.632751464844</ele>
        <time>2012-01-15T11:16:28Z</time>
      </trkpt>
      <trkpt lat="43.48968" lon="6.93174">
        <ele>40.852478027344</ele>
        <time>2012-01-15T11:16:56Z</time>
      </trkpt>
      <trkpt lat="43.48978" lon="6.93164">
        <ele>41.900703430176</ele>
        <time>2012-01-15T11:17:03Z</time>
      </trkpt>
      <trkpt lat="43.48984" lon="6.93153">
        <ele>42.661163330078</ele>
        <time>2012-01-15T11:17:08Z</time>
      </trkpt>
      <trkpt lat="43.48994" lon="6.93134">
        <ele>43.424976348877</ele>
        <time>2012-01-15T11:17:15Z</time>
      </trkpt>
      <trkpt lat="43.49005" lon="6.93117">
        <ele>43.563083648682</ele>
        <time>2012-01-15T11:17:22Z</time>
      </trkpt>
      <trkpt lat="43.49022" lon="6.93106">
        <ele>45.543556213379</ele>
        <time>2012-01-15T11:17:30Z</time>
      </trkpt>
      <trkpt lat="43.49039" lon="6.93102">
        <ele>50.852054595947</ele>
        <time>2012-01-15T11:17:37Z</time>
      </trkpt>
      <trkpt lat="43.49054" lon="6.93095">
        <ele>56.48779296875</ele>
        <time>2012-01-15T11:17:44Z</time>
      </trkpt>
      <trkpt lat="43.49067" lon="6.93086">
        <ele>57.499530792236</ele>
        <time>2012-01-15T11:17:51Z</time>
      </trkpt>
      <trkpt lat="43.49081" lon="6.93083">
        <ele>59.623847961426</ele>
        <time>2012-01-15T11:17:58Z</time>
      </trkpt>
      <trkpt lat="43.49091" lon="6.93085">
        <ele>61.002155303955</ele>
        <time>2012-01-15T11:18:03Z</time>
      </trkpt>
      <trkpt lat="43.49095" lon="6.93088">
        <ele>61.688873291016</ele>
        <time>2012-01-15T11:18:05Z</time>
      </trkpt>
      <trkpt lat="43.49112" lon="6.93105">
        <ele>65.564605712891</ele>
        <time>2012-01-15T11:18:14Z</time>
      </trkpt>
      <trkpt lat="43.49124" lon="6.93113">
        <ele>69.861274719238</ele>
        <time>2012-01-15T11:18:20Z</time>
      </trkpt>
      <trkpt lat="43.49137" lon="6.93119">
        <ele>74.720245361328</ele>
        <time>2012-01-15T11:18:27Z</time>
      </trkpt>
      <trkpt lat="43.49151" lon="6.93127">
        <ele>77.903785705566</ele>
        <time>2012-01-15T11:18:34Z</time>
      </trkpt>
      <trkpt lat="43.49168" lon="6.93129">
        <ele>80.23942565918</ele>
        <time>2012-01-15T11:18:41Z</time>
      </trkpt>
      <trkpt lat="43.49186" lon="6.93135">
        <ele>85.333351135254</ele>
        <time>2012-01-15T11:18:49Z</time>
      </trkpt>
      <trkpt lat="43.492" lon="6.93134">
        <ele>89.657814025879</ele>
        <time>2012-01-15T11:18:55Z</time>
      </trkpt>
      <trkpt lat="43.49218" lon="6.93122">
        <ele>95.818656921387</ele>
        <time>2012-01-15T11:19:04Z</time>
      </trkpt>
      <trkpt lat="43.49219" lon="6.93107">
        <ele>94.245170593262</ele>
        <time>2012-01-15T11:19:09Z</time>
      </trkpt>
      <trkpt lat="43.49219" lon="6.93075">
        <ele>89.920944213867</ele>
        <time>2012-01-15T11:19:18Z</time>
      </trkpt>
      <trkpt lat="43.49227" lon="6.93056">
        <ele>90.82738494873</ele>
        <time>2012-01-15T11:19:25Z</time>
      </trkpt>
      <trkpt lat="43.49239" lon="6.93046">
        <ele>93.753349304199</ele>
        <time>2012-01-15T11:19:31Z</time>
      </trkpt>
      <trkpt lat="43.49258" lon="6.93039">
        <ele>98.84139251709</ele>
        <time>2012-01-15T11:19:39Z</time>
      </trkpt>
      <trkpt lat="43.49273" lon="6.9303">
        <ele>101.895652771</ele>
        <time>2012-01-15T11:19:47Z</time>
      </trkpt>
      <trkpt lat="43.49281" lon="6.93015">
        <ele>101.80562591553</ele>
        <time>2012-01-15T11:19:53Z</time>
      </trkpt>
      <trkpt lat="43.49278" lon="6.92998">
        <ele>97.731414794922</ele>
        <time>2012-01-15T11:19:58Z</time>
      </trkpt>
      <trkpt lat="43.49279" lon="6.92973">
        <ele>94.627777099609</ele>
        <time>2012-01-15T11:20:05Z</time>
      </trkpt>
      <trkpt lat="43.49287" lon="6.92955">
        <ele>94.129898071289</ele>
        <time>2012-01-15T11:20:12Z</time>
      </trkpt>
      <trkpt lat="43.49295" lon="6.92943">
        <ele>94.210311889648</ele>
        <time>2012-01-15T11:20:18Z</time>
      </trkpt>
      <trkpt lat="43.493" lon="6.92937">
        <ele>94.632598876953</ele>
        <time>2012-01-15T11:20:24Z</time>
      </trkpt>
      <trkpt lat="43.493" lon="6.92937">
        <ele>94.488403320312</ele>
        <time>2012-01-15T11:20:31Z</time>
      </trkpt>
      <trkpt lat="43.49303" lon="6.92937">
        <ele>95.353576660156</ele>
        <time>2012-01-15T11:20:35Z</time>
      </trkpt>
      <trkpt lat="43.49308" lon="6.92932">
        <ele>95.664855957031</ele>
        <time>2012-01-15T11:20:42Z</time>
      </trkpt>
      <trkpt lat="43.4931" lon="6.92929">
        <ele>95.44856262207</ele>
        <time>2012-01-15T11:20:50Z</time>
      </trkpt>
      <trkpt lat="43.49313" lon="6.92926">
        <ele>95.726654052734</ele>
        <time>2012-01-15T11:20:55Z</time>
      </trkpt>
      <trkpt lat="43.49313" lon="6.92926">
        <ele>95.726654052734</ele>
        <time>2012-01-15T11:20:57Z</time>
      </trkpt>
      <trkpt lat="43.49319" lon="6.92922">
        <ele>96.076843261719</ele>
        <time>2012-01-15T11:21:05Z</time>
      </trkpt>
      <trkpt lat="43.49331" lon="6.92916">
        <ele>97.52172088623</ele>
        <time>2012-01-15T11:21:12Z</time>
      </trkpt>
      <trkpt lat="43.49334" lon="6.92913">
        <ele>97.758186340332</ele>
        <time>2012-01-15T11:21:14Z</time>
      </trkpt>
      <trkpt lat="43.49338" lon="6.92904">
        <ele>97.979835510254</ele>
        <time>2012-01-15T11:21:18Z</time>
      </trkpt>
      <trkpt lat="43.49339" lon="6.92889">
        <ele>96.383056640625</ele>
        <time>2012-01-15T11:21:25Z</time>
      </trkpt>
      <trkpt lat="43.49341" lon="6.92872">
        <ele>94.312789916992</ele>
        <time>2012-01-15T11:21:32Z</time>
      </trkpt>
      <trkpt lat="43.49344" lon="6.92855">
        <ele>92.586990356445</ele>
        <time>2012-01-15T11:21:39Z</time>
      </trkpt>
      <trkpt lat="43.4935" lon="6.92837">
        <ele>91.683616638184</ele>
        <time>2012-01-15T11:21:47Z</time>
      </trkpt>
      <trkpt lat="43.4936" lon="6.92818">
        <ele>91.990341186523</ele>
        <time>2012-01-15T11:21:57Z</time>
      </trkpt>
      <trkpt lat="43.49369" lon="6.92805">
        <ele>92.889312744141</ele>
        <time>2012-01-15T11:22:05Z</time>
      </trkpt>
      <trkpt lat="43.4938" lon="6.92795">
        <ele>94.748405456543</ele>
        <time>2012-01-15T11:22:13Z</time>
      </trkpt>
      <trkpt lat="43.49389" lon="6.92792">
        <ele>96.576629638672</ele>
        <time>2012-01-15T11:22:19Z</time>
      </trkpt>
      <trkpt lat="43.494" lon="6.92788">
        <ele>97.678688049316</ele>
        <time>2012-01-15T11:22:26Z</time>
      </trkpt>
      <trkpt lat="43.49416" lon="6.92787">
        <ele>99.899505615234</ele>
        <time>2012-01-15T11:22:35Z</time>
      </trkpt>
      <trkpt lat="43.4943" lon="6.92796">
        <ele>109.0285949707</ele>
        <time>2012-01-15T11:22:44Z</time>
      </trkpt>
      <trkpt lat="43.49445" lon="6.92805">
        <ele>120.59758758545</ele>
        <time>2012-01-15T11:22:54Z</time>
      </trkpt>
      <trkpt lat="43.49455" lon="6.92796">
        <ele>126.28224182129</ele>
        <time>2012-01-15T11:23:00Z</time>
      </trkpt>
      <trkpt lat="43.49468" lon="6.92784">
        <ele>135.82859802246</ele>
        <time>2012-01-15T11:23:08Z</time>
      </trkpt>
      <trkpt lat="43.49477" lon="6.92778">
        <ele>138.44226074219</ele>
        <time>2012-01-15T11:23:14Z</time>
      </trkpt>
      <trkpt lat="43.49484" lon="6.92777">
        <ele>137.70068359375</ele>
        <time>2012-01-15T11:23:18Z</time>
      </trkpt>
      <trkpt lat="43.49486" lon="6.92781">
        <ele>137.42839050293</ele>
        <time>2012-01-15T11:23:20Z</time>
      </trkpt>
      <trkpt lat="43.49483" lon="6.92791">
        <ele>137.59161376953</ele>
        <time>2012-01-15T11:23:24Z</time>
      </trkpt>
      <trkpt lat="43.49482" lon="6.92793">
        <ele>137.70524597168</ele>
        <time>2012-01-15T11:23:25Z</time>
      </trkpt>
      <trkpt lat="43.49477" lon="6.92806">
        <ele>138.25634765625</ele>
        <time>2012-01-15T11:23:31Z</time>
      </trkpt>
      <trkpt lat="43.49469" lon="6.92819">
        <ele>137.05291748047</ele>
        <time>2012-01-15T11:23:38Z</time>
      </trkpt>
      <trkpt lat="43.49459" lon="6.92834">
        <ele>130.08558654785</ele>
        <time>2012-01-15T11:23:47Z</time>
      </trkpt>
      <trkpt lat="43.49448" lon="6.92848">
        <ele>124.24771118164</ele>
        <time>2012-01-15T11:23:56Z</time>
      </trkpt>
      <trkpt lat="43.4944" lon="6.92844">
        <ele>119.25801086426</ele>
        <time>2012-01-15T11:24:02Z</time>
      </trkpt>
      <trkpt lat="43.49428" lon="6.92844">
        <ele>113.59057617188</ele>
        <time>2012-01-15T11:24:10Z</time>
      </trkpt>
      <trkpt lat="43.49416" lon="6.92848">
        <ele>109.55876922607</ele>
        <time>2012-01-15T11:24:18Z</time>
      </trkpt>
      <trkpt lat="43.49407" lon="6.92858">
        <ele>110.71105194092</ele>
        <time>2012-01-15T11:24:26Z</time>
      </trkpt>
      <trkpt lat="43.49399" lon="6.92874">
        <ele>113.07391357422</ele>
        <time>2012-01-15T11:24:35Z</time>
      </trkpt>
      <trkpt lat="43.49397" lon="6.92891">
        <ele>117.42884063721</ele>
        <time>2012-01-15T11:24:43Z</time>
      </trkpt>
      <trkpt lat="43.49401" lon="6.92908">
        <ele>121.20538330078</ele>
        <time>2012-01-15T11:24:51Z</time>
      </trkpt>
      <trkpt lat="43.49408" lon="6.92923">
        <ele>125.35784912109</ele>
        <time>2012-01-15T11:25:00Z</time>
      </trkpt>
      <trkpt lat="43.49411" lon="6.92936">
        <ele>128.88034057617</ele>
        <time>2012-01-15T11:25:07Z</time>
      </trkpt>
      <trkpt lat="43.49411" lon="6.92949">
        <ele>131.85095214844</ele>
        <time>2012-01-15T11:25:13Z</time>
      </trkpt>
      <trkpt lat="43.49407" lon="6.92964">
        <ele>134.25416564941</ele>
        <time>2012-01-15T11:25:20Z</time>
      </trkpt>
      <trkpt lat="43.49402" lon="6.92982">
        <ele>136.52386474609</ele>
        <time>2012-01-15T11:25:28Z</time>
      </trkpt>
      <trkpt lat="43.49403" lon="6.92997">
        <ele>138.6258392334</ele>
        <time>2012-01-15T11:25:35Z</time>
      </trkpt>
      <trkpt lat="43.49406" lon="6.93017">
        <ele>141.77040100098</ele>
        <time>2012-01-15T11:25:44Z</time>
      </trkpt>
      <trkpt lat="43.49404" lon="6.93037">
        <ele>144.08251953125</ele>
        <time>2012-01-15T11:25:52Z</time>
      </trkpt>
      <trkpt lat="43.494" lon="6.93049">
        <ele>145.11248779297</ele>
        <time>2012-01-15T11:25:58Z</time>
      </trkpt>
      <trkpt lat="43.49395" lon="6.93067">
        <ele>146.58473205566</ele>
        <time>2012-01-15T11:26:06Z</time>
      </trkpt>
      <trkpt lat="43.49387" lon="6.93084">
        <ele>147.71170043945</ele>
        <time>2012-01-15T11:26:14Z</time>
      </trkpt>
      <trkpt lat="43.49379" lon="6.93097">
        <ele>147.43534851074</ele>
        <time>2012-01-15T11:26:21Z</time>
      </trkpt>
      <trkpt lat="43.49369" lon="6.93112">
        <ele>147.59686279297</ele>
        <time>2012-01-15T11:26:29Z</time>
      </trkpt>
      <trkpt lat="43.4936" lon="6.93134">
        <ele>149.0319519043</ele>
        <time>2012-01-15T11:26:39Z</time>
      </trkpt>
      <trkpt lat="43.49355" lon="6.93156">
        <ele>150.53677368164</ele>
        <time>2012-01-15T11:26:48Z</time>
      </trkpt>
      <trkpt lat="43.49356" lon="6.93174">
        <ele>152.93884277344</ele>
        <time>2012-01-15T11:26:56Z</time>
      </trkpt>
      <trkpt lat="43.4936" lon="6.93193">
        <ele>156.66046142578</ele>
        <time>2012-01-15T11:27:05Z</time>
      </trkpt>
      <trkpt lat="43.49366" lon="6.93205">
        <ele>158.85122680664</ele>
        <time>2012-01-15T11:27:12Z</time>
      </trkpt>
      <trkpt lat="43.49368" lon="6.93205">
        <ele>159.20141601562</ele>
        <time>2012-01-15T11:27:14Z</time>
      </trkpt>
      <trkpt lat="43.4937" lon="6.93202">
        <ele>159.11558532715</ele>
        <time>2012-01-15T11:27:17Z</time>
      </trkpt>
      <trkpt lat="43.49369" lon="6.93193">
        <ele>157.93600463867</ele>
        <time>2012-01-15T11:27:21Z</time>
      </trkpt>
      <trkpt lat="43.49368" lon="6.93188">
        <ele>157.05709838867</ele>
        <time>2012-01-15T11:27:23Z</time>
      </trkpt>
      <trkpt lat="43.49368" lon="6.93169">
        <ele>154.37231445312</ele>
        <time>2012-01-15T11:27:31Z</time>
      </trkpt>
      <trkpt lat="43.49373" lon="6.93155">
        <ele>153.64901733398</ele>
        <time>2012-01-15T11:27:38Z</time>
      </trkpt>
      <trkpt lat="43.49385" lon="6.93141">
        <ele>154.42106628418</ele>
        <time>2012-01-15T11:27:47Z</time>
      </trkpt>
      <trkpt lat="43.49399" lon="6.93132">
        <ele>154.12403869629</ele>
        <time>2012-01-15T11:27:56Z</time>
      </trkpt>
      <trkpt lat="43.49411" lon="6.93125">
        <ele>153.36079406738</ele>
        <time>2012-01-15T11:28:04Z</time>
      </trkpt>
      <trkpt lat="43.49427" lon="6.93118">
        <ele>151.57202148438</ele>
        <time>2012-01-15T11:28:13Z</time>
      </trkpt>
      <trkpt lat="43.49439" lon="6.9312">
        <ele>150.29611206055</ele>
        <time>2012-01-15T11:28:20Z</time>
      </trkpt>
      <trkpt lat="43.49442" lon="6.93137">
        <ele>151.13862609863</ele>
        <time>2012-01-15T11:28:25Z</time>
      </trkpt>
      <trkpt lat="43.4944" lon="6.93167">
        <ele>152.76179504394</ele>
        <time>2012-01-15T11:28:31Z</time>
      </trkpt>
      <trkpt lat="43.49432" lon="6.93189">
        <ele>156.27284240723</ele>
        <time>2012-01-15T11:28:36Z</time>
      </trkpt>
      <trkpt lat="43.4941" lon="6.93226">
        <ele>162.76774597168</ele>
        <time>2012-01-15T11:28:44Z</time>
      </trkpt>
      <trkpt lat="43.49401" lon="6.93248">
        <ele>165.96340942383</ele>
        <time>2012-01-15T11:28:50Z</time>
      </trkpt>
      <trkpt lat="43.49399" lon="6.93267">
        <ele>168.56784057617</ele>
        <time>2012-01-15T11:28:58Z</time>
      </trkpt>
      <trkpt lat="43.49397" lon="6.93288">
        <ele>171.16159057617</ele>
        <time>2012-01-15T11:29:07Z</time>
      </trkpt>
      <trkpt lat="43.49398" lon="6.93304">
        <ele>172.56387329102</ele>
        <time>2012-01-15T11:29:14Z</time>
      </trkpt>
      <trkpt lat="43.49399" lon="6.93319">
        <ele>171.50007629394</ele>
        <time>2012-01-15T11:29:21Z</time>
      </trkpt>
      <trkpt lat="43.49398" lon="6.9333">
        <ele>170.92672729492</ele>
        <time>2012-01-15T11:29:26Z</time>
      </trkpt>
      <trkpt lat="43.49397" lon="6.93331">
        <ele>171.23571777344</ele>
        <time>2012-01-15T11:29:27Z</time>
      </trkpt>
      <trkpt lat="43.4939" lon="6.93327">
        <ele>173.09652709961</ele>
        <time>2012-01-15T11:29:31Z</time>
      </trkpt>
      <trkpt lat="43.49384" lon="6.93319">
        <ele>175.02275085449</ele>
        <time>2012-01-15T11:29:36Z</time>
      </trkpt>
      <trkpt lat="43.49382" lon="6.93315">
        <ele>175.78343200684</ele>
        <time>2012-01-15T11:29:38Z</time>
      </trkpt>
      <trkpt lat="43.49369" lon="6.9331">
        <ele>178.40823364258</ele>
        <time>2012-01-15T11:29:46Z</time>
      </trkpt>
      <trkpt lat="43.49354" lon="6.9331">
        <ele>177.07032775879</ele>
        <time>2012-01-15T11:29:55Z</time>
      </trkpt>
      <trkpt lat="43.49342" lon="6.93317">
        <ele>173.22299194336</ele>
        <time>2012-01-15T11:30:03Z</time>
      </trkpt>
      <trkpt lat="43.49335" lon="6.93332">
        <ele>174.90786743164</ele>
        <time>2012-01-15T11:30:11Z</time>
      </trkpt>
      <trkpt lat="43.49335" lon="6.93334">
        <ele>175.45869445801</ele>
        <time>2012-01-15T11:30:12Z</time>
      </trkpt>
      <trkpt lat="43.49338" lon="6.93341">
        <ele>177.03265380859</ele>
        <time>2012-01-15T11:30:16Z</time>
      </trkpt>
      <trkpt lat="43.49339" lon="6.93346">
        <ele>177.76115417481</ele>
        <time>2012-01-15T11:30:18Z</time>
      </trkpt>
      <trkpt lat="43.49342" lon="6.93354">
        <ele>179.12789916992</ele>
        <time>2012-01-15T11:30:23Z</time>
      </trkpt>
      <trkpt lat="43.49352" lon="6.93368">
        <ele>180</ele>
        <time>2012-01-15T11:30:31Z</time>
      </trkpt>
      <trkpt lat="43.49352" lon="6.9337">
        <ele>180</ele>
        <time>2012-01-15T11:30:32Z</time>
      </trkpt>
      <trkpt lat="43.49351" lon="6.9338">
        <ele>180</ele>
        <time>2012-01-15T11:30:36Z</time>
      </trkpt>
      <trkpt lat="43.4935" lon="6.9339">
        <ele>180</ele>
        <time>2012-01-15T11:30:41Z</time>
      </trkpt>
      <trkpt lat="43.49349" lon="6.93393">
        <ele>180</ele>
        <time>2012-01-15T11:30:47Z</time>
      </trkpt>
      <trkpt lat="43.4935" lon="6.93392">
        <ele>180</ele>
        <time>2012-01-15T11:31:11Z</time>
      </trkpt>
      <trkpt lat="43.49351" lon="6.93392">
        <ele>180</ele>
        <time>2012-01-15T11:31:38Z</time>
      </trkpt>
      <trkpt lat="43.49347" lon="6.93393">
        <ele>180</ele>
        <time>2012-01-15T11:37:14Z</time>
      </trkpt>
      <trkpt lat="43.49347" lon="6.934">
        <ele>180</ele>
        <time>2012-01-15T11:37:19Z</time>
      </trkpt>
      <trkpt lat="43.49343" lon="6.93417">
        <ele>179.98452758789</ele>
        <time>2012-01-15T11:37:24Z</time>
      </trkpt>
      <trkpt lat="43.49343" lon="6.93431">
        <ele>178.9923248291</ele>
        <time>2012-01-15T11:37:27Z</time>
      </trkpt>
      <trkpt lat="43.49341" lon="6.93445">
        <ele>177.97442626953</ele>
        <time>2012-01-15T11:37:30Z</time>
      </trkpt>
      <trkpt lat="43.49334" lon="6.93475">
        <ele>174.65382385254</ele>
        <time>2012-01-15T11:37:37Z</time>
      </trkpt>
      <trkpt lat="43.49334" lon="6.93505">
        <ele>171.25750732422</ele>
        <time>2012-01-15T11:37:42Z</time>
      </trkpt>
      <trkpt lat="43.49339" lon="6.93534">
        <ele>167.12448120117</ele>
        <time>2012-01-15T11:37:46Z</time>
      </trkpt>
      <trkpt lat="43.49348" lon="6.9357">
        <ele>162.61912536621</ele>
        <time>2012-01-15T11:37:50Z</time>
      </trkpt>
      <trkpt lat="43.49348" lon="6.9358">
        <ele>161.423828125</ele>
        <time>2012-01-15T11:37:51Z</time>
      </trkpt>
      <trkpt lat="43.49341" lon="6.93605">
        <ele>160.09373474121</ele>
        <time>2012-01-15T11:37:54Z</time>
      </trkpt>
      <trkpt lat="43.49333" lon="6.93628">
        <ele>159.94342041016</ele>
        <time>2012-01-15T11:37:58Z</time>
      </trkpt>
      <trkpt lat="43.49324" lon="6.93661">
        <ele>158.49600219727</ele>
        <time>2012-01-15T11:38:05Z</time>
      </trkpt>
      <trkpt lat="43.49321" lon="6.93685">
        <ele>158.42129516602</ele>
        <time>2012-01-15T11:38:11Z</time>
      </trkpt>
      <trkpt lat="43.49314" lon="6.93716">
        <ele>157.50299072266</ele>
        <time>2012-01-15T11:38:20Z</time>
      </trkpt>
      <trkpt lat="43.49308" lon="6.93737">
        <ele>157.57464599609</ele>
        <time>2012-01-15T11:38:26Z</time>
      </trkpt>
      <trkpt lat="43.49308" lon="6.9376">
        <ele>157.64123535156</ele>
        <time>2012-01-15T11:38:33Z</time>
      </trkpt>
      <trkpt lat="43.49309" lon="6.93788">
        <ele>157</ele>
        <time>2012-01-15T11:38:41Z</time>
      </trkpt>
      <trkpt lat="43.49305" lon="6.9382">
        <ele>159.12591552734</ele>
        <time>2012-01-15T11:38:49Z</time>
      </trkpt>
      <trkpt lat="43.49299" lon="6.93862">
        <ele>163.57743835449</ele>
        <time>2012-01-15T11:38:59Z</time>
      </trkpt>
      <trkpt lat="43.49295" lon="6.93888">
        <ele>166.70167541504</ele>
        <time>2012-01-15T11:39:06Z</time>
      </trkpt>
      <trkpt lat="43.49291" lon="6.93911">
        <ele>169.84562683106</ele>
        <time>2012-01-15T11:39:14Z</time>
      </trkpt>
      <trkpt lat="43.49293" lon="6.93933">
        <ele>171.85986328125</ele>
        <time>2012-01-15T11:39:21Z</time>
      </trkpt>
      <trkpt lat="43.49294" lon="6.93961">
        <ele>174.45793151856</ele>
        <time>2012-01-15T11:39:30Z</time>
      </trkpt>
      <trkpt lat="43.49294" lon="6.93964">
        <ele>174.69482421875</ele>
        <time>2012-01-15T11:39:31Z</time>
      </trkpt>
      <trkpt lat="43.49279" lon="6.93971">
        <ele>177.74182128906</ele>
        <time>2012-01-15T11:56:48Z</time>
      </trkpt>
      <trkpt lat="43.49279" lon="6.93971">
        <ele>177.73666381836</ele>
        <time>2012-01-15T11:56:50Z</time>
      </trkpt>
      <trkpt lat="43.49279" lon="6.93968">
        <ele>177.29034423828</ele>
        <time>2012-01-15T11:56:58Z</time>
      </trkpt>
      <trkpt lat="43.49281" lon="6.93955">
        <ele>175.67501831055</ele>
        <time>2012-01-15T11:57:00Z</time>
      </trkpt>
      <trkpt lat="43.49284" lon="6.9393">
        <ele>172.61563110352</ele>
        <time>2012-01-15T11:57:03Z</time>
      </trkpt>
      <trkpt lat="43.49284" lon="6.93922">
        <ele>171.85789489746</ele>
        <time>2012-01-15T11:57:04Z</time>
      </trkpt>
      <trkpt lat="43.49284" lon="6.93905">
        <ele>169.65292358398</ele>
        <time>2012-01-15T11:57:07Z</time>
      </trkpt>
      <trkpt lat="43.49286" lon="6.93899">
        <ele>168.78553771973</ele>
        <time>2012-01-15T11:57:08Z</time>
      </trkpt>
      <trkpt lat="43.49287" lon="6.93888">
        <ele>167.24584960938</ele>
        <time>2012-01-15T11:57:10Z</time>
      </trkpt>
      <trkpt lat="43.49288" lon="6.93878">
        <ele>166.05966186523</ele>
        <time>2012-01-15T11:57:13Z</time>
      </trkpt>
      <trkpt lat="43.49291" lon="6.93865">
        <ele>164.47866821289</ele>
        <time>2012-01-15T11:57:17Z</time>
      </trkpt>
      <trkpt lat="43.49299" lon="6.93842">
        <ele>161.9246673584</ele>
        <time>2012-01-15T11:57:21Z</time>
      </trkpt>
      <trkpt lat="43.493" lon="6.93827">
        <ele>160.25465393066</ele>
        <time>2012-01-15T11:57:23Z</time>
      </trkpt>
      <trkpt lat="43.49305" lon="6.93796">
        <ele>157</ele>
        <time>2012-01-15T11:57:27Z</time>
      </trkpt>
      <trkpt lat="43.49305" lon="6.93758">
        <ele>157.70448303223</ele>
        <time>2012-01-15T11:57:32Z</time>
      </trkpt>
      <trkpt lat="43.49305" lon="6.93751">
        <ele>157.93675231934</ele>
        <time>2012-01-15T11:57:33Z</time>
      </trkpt>
      <trkpt lat="43.49303" lon="6.93744">
        <ele>157.64993286133</ele>
        <time>2012-01-15T11:57:34Z</time>
      </trkpt>
      <trkpt lat="43.49295" lon="6.93723">
        <ele>156.31875610352</ele>
        <time>2012-01-15T11:57:37Z</time>
      </trkpt>
      <trkpt lat="43.49295" lon="6.93717">
        <ele>156.35249328613</ele>
        <time>2012-01-15T11:57:38Z</time>
      </trkpt>
      <trkpt lat="43.49295" lon="6.93706">
        <ele>156.57720947266</ele>
        <time>2012-01-15T11:57:40Z</time>
      </trkpt>
      <trkpt lat="43.49295" lon="6.937">
        <ele>156.78044128418</ele>
        <time>2012-01-15T11:57:41Z</time>
      </trkpt>
      <trkpt lat="43.49299" lon="6.93689">
        <ele>157.07089233398</ele>
        <time>2012-01-15T11:57:43Z</time>
      </trkpt>
      <trkpt lat="43.49306" lon="6.93681">
        <ele>157.53877258301</ele>
        <time>2012-01-15T11:57:45Z</time>
      </trkpt>
      <trkpt lat="43.49318" lon="6.93667">
        <ele>157.9012298584</ele>
        <time>2012-01-15T11:57:48Z</time>
      </trkpt>
      <trkpt lat="43.49323" lon="6.93662">
        <ele>158.37458801269</ele>
        <time>2012-01-15T11:57:49Z</time>
      </trkpt>
      <trkpt lat="43.49332" lon="6.93649">
        <ele>159.54988098144</ele>
        <time>2012-01-15T11:57:52Z</time>
      </trkpt>
      <trkpt lat="43.49332" lon="6.93643">
        <ele>159.74583435059</ele>
        <time>2012-01-15T11:57:53Z</time>
      </trkpt>
      <trkpt lat="43.49334" lon="6.93619">
        <ele>159.98890686035</ele>
        <time>2012-01-15T11:57:56Z</time>
      </trkpt>
      <trkpt lat="43.49345" lon="6.93587">
        <ele>160.92225646973</ele>
        <time>2012-01-15T11:58:00Z</time>
      </trkpt>
      <trkpt lat="43.49352" lon="6.93574">
        <ele>161.86770629883</ele>
        <time>2012-01-15T11:58:02Z</time>
      </trkpt>
      <trkpt lat="43.49358" lon="6.93564">
        <ele>162.92599487305</ele>
        <time>2012-01-15T11:58:04Z</time>
      </trkpt>
      <trkpt lat="43.49361" lon="6.93558">
        <ele>163.65406799316</ele>
        <time>2012-01-15T11:58:05Z</time>
      </trkpt>
      <trkpt lat="43.49368" lon="6.93547">
        <ele>163.58746337891</ele>
        <time>2012-01-15T11:58:08Z</time>
      </trkpt>
      <trkpt lat="43.49377" lon="6.93538">
        <ele>162.36627197266</ele>
        <time>2012-01-15T11:58:11Z</time>
      </trkpt>
      <trkpt lat="43.49379" lon="6.93534">
        <ele>162.12550354004</ele>
        <time>2012-01-15T11:58:12Z</time>
      </trkpt>
      <trkpt lat="43.49389" lon="6.93508">
        <ele>159.91081237793</ele>
        <time>2012-01-15T11:58:17Z</time>
      </trkpt>
      <trkpt lat="43.49396" lon="6.93492">
        <ele>158.96160888672</ele>
        <time>2012-01-15T11:58:21Z</time>
      </trkpt>
      <trkpt lat="43.494" lon="6.93469">
        <ele>159.60978698731</ele>
        <time>2012-01-15T11:58:26Z</time>
      </trkpt>
      <trkpt lat="43.49404" lon="6.93453">
        <ele>159.82824707031</ele>
        <time>2012-01-15T11:58:30Z</time>
      </trkpt>
      <trkpt lat="43.49412" lon="6.93439">
        <ele>159.31793212891</ele>
        <time>2012-01-15T11:58:34Z</time>
      </trkpt>
      <trkpt lat="43.49421" lon="6.93434">
        <ele>156.91860961914</ele>
        <time>2012-01-15T11:58:37Z</time>
      </trkpt>
      <trkpt lat="43.49429" lon="6.93434">
        <ele>152.98069763184</ele>
        <time>2012-01-15T11:58:41Z</time>
      </trkpt>
      <trkpt lat="43.4943" lon="6.93437">
        <ele>152.24255371094</ele>
        <time>2012-01-15T11:58:42Z</time>
      </trkpt>
      <trkpt lat="43.4943" lon="6.93441">
        <ele>151.81683349609</ele>
        <time>2012-01-15T11:58:43Z</time>
      </trkpt>
      <trkpt lat="43.4943" lon="6.93447">
        <ele>151.63481140137</ele>
        <time>2012-01-15T11:58:45Z</time>
      </trkpt>
      <trkpt lat="43.49428" lon="6.93459">
        <ele>152.25451660156</ele>
        <time>2012-01-15T11:58:49Z</time>
      </trkpt>
      <trkpt lat="43.4943" lon="6.93467">
        <ele>150.91897583008</ele>
        <time>2012-01-15T11:58:52Z</time>
      </trkpt>
      <trkpt lat="43.49435" lon="6.93479">
        <ele>147.80944824219</ele>
        <time>2012-01-15T11:58:56Z</time>
      </trkpt>
      <trkpt lat="43.49432" lon="6.93494">
        <ele>148.19456481934</ele>
        <time>2012-01-15T11:59:00Z</time>
      </trkpt>
      <trkpt lat="43.4943" lon="6.93505">
        <ele>148.30940246582</ele>
        <time>2012-01-15T11:59:04Z</time>
      </trkpt>
      <trkpt lat="43.49429" lon="6.93513">
        <ele>148.05877685547</ele>
        <time>2012-01-15T11:59:07Z</time>
      </trkpt>
      <trkpt lat="43.49432" lon="6.93516">
        <ele>146.91207885742</ele>
        <time>2012-01-15T11:59:08Z</time>
      </trkpt>
      <trkpt lat="43.49436" lon="6.93537">
        <ele>143.84133911133</ele>
        <time>2012-01-15T11:59:12Z</time>
      </trkpt>
      <trkpt lat="43.49442" lon="6.9355">
        <ele>141.1301574707</ele>
        <time>2012-01-15T11:59:15Z</time>
      </trkpt>
      <trkpt lat="43.49448" lon="6.93558">
        <ele>137.5457611084</ele>
        <time>2012-01-15T11:59:18Z</time>
      </trkpt>
      <trkpt lat="43.49449" lon="6.93561">
        <ele>136.81777954102</ele>
        <time>2012-01-15T11:59:19Z</time>
      </trkpt>
      <trkpt lat="43.49454" lon="6.93571">
        <ele>132.64752197266</ele>
        <time>2012-01-15T11:59:22Z</time>
      </trkpt>
      <trkpt lat="43.49459" lon="6.93582">
        <ele>128.50769042969</ele>
        <time>2012-01-15T11:59:25Z</time>
      </trkpt>
      <trkpt lat="43.49464" lon="6.93589">
        <ele>125.35939788818</ele>
        <time>2012-01-15T11:59:29Z</time>
      </trkpt>
      <trkpt lat="43.49468" lon="6.9359">
        <ele>122.98905181885</ele>
        <time>2012-01-15T11:59:32Z</time>
      </trkpt>
      <trkpt lat="43.49473" lon="6.93589">
        <ele>120.33059692383</ele>
        <time>2012-01-15T11:59:36Z</time>
      </trkpt>
      <trkpt lat="43.49477" lon="6.93602">
        <ele>117.10493469238</ele>
        <time>2012-01-15T11:59:40Z</time>
      </trkpt>
      <trkpt lat="43.49484" lon="6.93607">
        <ele>112.55910491943</ele>
        <time>2012-01-15T11:59:44Z</time>
      </trkpt>
      <trkpt lat="43.49493" lon="6.93606">
        <ele>107.64039611816</ele>
        <time>2012-01-15T11:59:48Z</time>
      </trkpt>
      <trkpt lat="43.49497" lon="6.93603">
        <ele>106.33276367188</ele>
        <time>2012-01-15T11:59:50Z</time>
      </trkpt>
      <trkpt lat="43.49502" lon="6.93606">
        <ele>103.49079895019</ele>
        <time>2012-01-15T11:59:52Z</time>
      </trkpt>
      <trkpt lat="43.49504" lon="6.93614">
        <ele>101.34735870361</ele>
        <time>2012-01-15T11:59:54Z</time>
      </trkpt>
      <trkpt lat="43.49507" lon="6.93621">
        <ele>99.354370117188</ele>
        <time>2012-01-15T11:59:56Z</time>
      </trkpt>
      <trkpt lat="43.49511" lon="6.9363">
        <ele>97.139938354492</ele>
        <time>2012-01-15T11:59:59Z</time>
      </trkpt>
      <trkpt lat="43.49512" lon="6.9363">
        <ele>96.479042053223</ele>
        <time>2012-01-15T12:00:00Z</time>
      </trkpt>
      <trkpt lat="43.4952" lon="6.93628">
        <ele>93.832023620605</ele>
        <time>2012-01-15T12:00:03Z</time>
      </trkpt>
      <trkpt lat="43.49527" lon="6.93632">
        <ele>91.064842224121</ele>
        <time>2012-01-15T12:00:07Z</time>
      </trkpt>
      <trkpt lat="43.49527" lon="6.93636">
        <ele>90.601356506348</ele>
        <time>2012-01-15T12:00:08Z</time>
      </trkpt>
      <trkpt lat="43.49528" lon="6.9365">
        <ele>88.844589233398</ele>
        <time>2012-01-15T12:00:11Z</time>
      </trkpt>
      <trkpt lat="43.49535" lon="6.93649">
        <ele>86.324150085449</ele>
        <time>2012-01-15T12:00:14Z</time>
      </trkpt>
      <trkpt lat="43.4954" lon="6.93645">
        <ele>84.978584289551</ele>
        <time>2012-01-15T12:00:16Z</time>
      </trkpt>
      <trkpt lat="43.4954" lon="6.93642">
        <ele>84.854225158691</ele>
        <time>2012-01-15T12:00:17Z</time>
      </trkpt>
      <trkpt lat="43.49545" lon="6.9363">
        <ele>83.61775970459</ele>
        <time>2012-01-15T12:00:21Z</time>
      </trkpt>
      <trkpt lat="43.49547" lon="6.93612">
        <ele>84.021949768066</ele>
        <time>2012-01-15T12:00:25Z</time>
      </trkpt>
      <trkpt lat="43.49553" lon="6.936">
        <ele>82.619697570801</ele>
        <time>2012-01-15T12:00:29Z</time>
      </trkpt>
      <trkpt lat="43.49553" lon="6.93601">
        <ele>82.374221801758</ele>
        <time>2012-01-15T12:00:30Z</time>
      </trkpt>
      <trkpt lat="43.49553" lon="6.93601">
        <ele>82.307273864746</ele>
        <time>2012-01-15T12:00:31Z</time>
      </trkpt>
      <trkpt lat="43.49556" lon="6.93603">
        <ele>80.773567199707</ele>
        <time>2012-01-15T12:00:33Z</time>
      </trkpt>
      <trkpt lat="43.49566" lon="6.93615">
        <ele>78.883148193359</ele>
        <time>2012-01-15T12:00:37Z</time>
      </trkpt>
      <trkpt lat="43.49576" lon="6.93634">
        <ele>78.192504882812</ele>
        <time>2012-01-15T12:00:42Z</time>
      </trkpt>
      <trkpt lat="43.49577" lon="6.93639">
        <ele>78.239273071289</ele>
        <time>2012-01-15T12:00:44Z</time>
      </trkpt>
      <trkpt lat="43.49578" lon="6.93641">
        <ele>78.188598632812</ele>
        <time>2012-01-15T12:00:45Z</time>
      </trkpt>
      <trkpt lat="43.49581" lon="6.93652">
        <ele>78.078735351562</ele>
        <time>2012-01-15T12:00:48Z</time>
      </trkpt>
      <trkpt lat="43.49585" lon="6.93651">
        <ele>77.583587646484</ele>
        <time>2012-01-15T12:00:51Z</time>
      </trkpt>
      <trkpt lat="43.49587" lon="6.93649">
        <ele>76.969932556152</ele>
        <time>2012-01-15T12:00:52Z</time>
      </trkpt>
      <trkpt lat="43.4959" lon="6.93647">
        <ele>76.238304138184</ele>
        <time>2012-01-15T12:00:53Z</time>
      </trkpt>
      <trkpt lat="43.49593" lon="6.93645">
        <ele>75.492065429688</ele>
        <time>2012-01-15T12:00:54Z</time>
      </trkpt>
      <trkpt lat="43.49597" lon="6.93652">
        <ele>74.484428405762</ele>
        <time>2012-01-15T12:00:57Z</time>
      </trkpt>
      <trkpt lat="43.49593" lon="6.93664">
        <ele>75.94514465332</ele>
        <time>2012-01-15T12:01:00Z</time>
      </trkpt>
      <trkpt lat="43.4959" lon="6.93669">
        <ele>76.61360168457</ele>
        <time>2012-01-15T12:01:01Z</time>
      </trkpt>
      <trkpt lat="43.49584" lon="6.9368">
        <ele>77.912147521973</ele>
        <time>2012-01-15T12:01:05Z</time>
      </trkpt>
      <trkpt lat="43.49585" lon="6.93679">
        <ele>77.771133422852</ele>
        <time>2012-01-15T12:01:09Z</time>
      </trkpt>
      <trkpt lat="43.49589" lon="6.93677">
        <ele>76.967483520508</ele>
        <time>2012-01-15T12:01:15Z</time>
      </trkpt>
      <trkpt lat="43.49596" lon="6.93674">
        <ele>75.576545715332</ele>
        <time>2012-01-15T12:01:17Z</time>
      </trkpt>
      <trkpt lat="43.49613" lon="6.93666">
        <ele>71.518455505371</ele>
        <time>2012-01-15T12:01:21Z</time>
      </trkpt>
      <trkpt lat="43.49627" lon="6.93659">
        <ele>66.868011474609</ele>
        <time>2012-01-15T12:01:24Z</time>
      </trkpt>
      <trkpt lat="43.49633" lon="6.93652">
        <ele>64.23176574707</ele>
        <time>2012-01-15T12:01:26Z</time>
      </trkpt>
      <trkpt lat="43.49631" lon="6.93638">
        <ele>62.789157867432</ele>
        <time>2012-01-15T12:01:29Z</time>
      </trkpt>
      <trkpt lat="43.49633" lon="6.93619">
        <ele>62.089008331299</ele>
        <time>2012-01-15T12:01:33Z</time>
      </trkpt>
      <trkpt lat="43.49641" lon="6.9361">
        <ele>59.940036773682</ele>
        <time>2012-01-15T12:01:37Z</time>
      </trkpt>
      <trkpt lat="43.49648" lon="6.93598">
        <ele>59.8210105896</ele>
        <time>2012-01-15T12:01:41Z</time>
      </trkpt>
      <trkpt lat="43.49653" lon="6.9359">
        <ele>59.883563995361</ele>
        <time>2012-01-15T12:01:45Z</time>
      </trkpt>
      <trkpt lat="43.49661" lon="6.93576">
        <ele>60</ele>
        <time>2012-01-15T12:01:49Z</time>
      </trkpt>
      <trkpt lat="43.4967" lon="6.93565">
        <ele>60</ele>
        <time>2012-01-15T12:01:53Z</time>
      </trkpt>
      <trkpt lat="43.49693" lon="6.93548">
        <ele>60</ele>
        <time>2012-01-15T12:01:59Z</time>
      </trkpt>
      <trkpt lat="43.49706" lon="6.93543">
        <ele>60</ele>
        <time>2012-01-15T12:02:02Z</time>
      </trkpt>
      <trkpt lat="43.49715" lon="6.93545">
        <ele>60</ele>
        <time>2012-01-15T12:02:04Z</time>
      </trkpt>
      <trkpt lat="43.49722" lon="6.9355">
        <ele>60</ele>
        <time>2012-01-15T12:02:06Z</time>
      </trkpt>
      <trkpt lat="43.49735" lon="6.93555">
        <ele>60</ele>
        <time>2012-01-15T12:02:09Z</time>
      </trkpt>
      <trkpt lat="43.4974" lon="6.93555">
        <ele>60</ele>
        <time>2012-01-15T12:02:10Z</time>
      </trkpt>
    </trkseg>
  </trk>
</gpx>